<?xml version="1.0" encoding="UTF-8" standalone="no" ?>
<gpx xmlns="http://www.topografix.com/GPX/1/1" xmlns:xsi="http://www.w3.org/2001/XMLSchema-instance" xsi:schemaLocation="http://www.topografix.com/GPX/1/1 http://www.topografix.com/GPX/1/1/gpx.xsd" version="1.1" creator="VisuGPX - https://www.visugpx.com">
  <metadata>
    <name>Cyclo : a plat gapençais </name>
    <desc><![CDATA[Un coktail de circuits offrant peu de dénivelés vers Gap ]]></desc>
  </metadata>
  <trk>
    <name><![CDATA[2019-05-16 13-29-04 on GPSies.com]]></name>
    <trkseg>
      <trkpt lat="44.38525" lon="5.94225">
        <ele>576</ele>
        <time>2019-05-16T10:58:42Z</time>
      </trkpt>
      <trkpt lat="44.38526" lon="5.94227">
        <ele>576</ele>
        <time>2019-05-16T10:58:54Z</time>
      </trkpt>
      <trkpt lat="44.38524" lon="5.94246">
        <ele>577</ele>
        <time>2019-05-16T11:05:59Z</time>
      </trkpt>
      <trkpt lat="44.38516" lon="5.94246">
        <ele>577</ele>
        <time>2019-05-16T11:06:03Z</time>
      </trkpt>
      <trkpt lat="44.38508" lon="5.9425">
        <ele>577</ele>
        <time>2019-05-16T11:06:08Z</time>
      </trkpt>
      <trkpt lat="44.38506" lon="5.9425">
        <ele>577</ele>
        <time>2019-05-16T11:06:09Z</time>
      </trkpt>
      <trkpt lat="44.38504" lon="5.94248">
        <ele>577</ele>
        <time>2019-05-16T11:06:10Z</time>
      </trkpt>
      <trkpt lat="44.38502" lon="5.94245">
        <ele>577</ele>
        <time>2019-05-16T11:06:11Z</time>
      </trkpt>
      <trkpt lat="44.38501" lon="5.94241">
        <ele>577</ele>
        <time>2019-05-16T11:06:12Z</time>
      </trkpt>
      <trkpt lat="44.385" lon="5.94238">
        <ele>577</ele>
        <time>2019-05-16T11:06:13Z</time>
      </trkpt>
      <trkpt lat="44.38497" lon="5.9418">
        <ele>577</ele>
        <time>2019-05-16T11:06:29Z</time>
      </trkpt>
      <trkpt lat="44.385" lon="5.94114">
        <ele>576</ele>
        <time>2019-05-16T11:06:43Z</time>
      </trkpt>
      <trkpt lat="44.38506" lon="5.94047">
        <ele>576</ele>
        <time>2019-05-16T11:06:57Z</time>
      </trkpt>
      <trkpt lat="44.38508" lon="5.94014">
        <ele>576</ele>
        <time>2019-05-16T11:07:03Z</time>
      </trkpt>
      <trkpt lat="44.38507" lon="5.94008">
        <ele>576</ele>
        <time>2019-05-16T11:07:04Z</time>
      </trkpt>
      <trkpt lat="44.38515" lon="5.93948">
        <ele>575</ele>
        <time>2019-05-16T11:07:16Z</time>
      </trkpt>
      <trkpt lat="44.38543" lon="5.93936">
        <ele>576</ele>
        <time>2019-05-16T11:07:30Z</time>
      </trkpt>
      <trkpt lat="44.38576" lon="5.93928">
        <ele>578</ele>
        <time>2019-05-16T11:07:48Z</time>
      </trkpt>
      <trkpt lat="44.38604" lon="5.93924">
        <ele>581</ele>
        <time>2019-05-16T11:08:04Z</time>
      </trkpt>
      <trkpt lat="44.38631" lon="5.93919">
        <ele>582</ele>
        <time>2019-05-16T11:08:20Z</time>
      </trkpt>
      <trkpt lat="44.3866" lon="5.93915">
        <ele>585</ele>
        <time>2019-05-16T11:08:38Z</time>
      </trkpt>
      <trkpt lat="44.38686" lon="5.93905">
        <ele>587</ele>
        <time>2019-05-16T11:08:56Z</time>
      </trkpt>
      <trkpt lat="44.38687" lon="5.93904">
        <ele>587</ele>
        <time>2019-05-16T11:08:57Z</time>
      </trkpt>
      <trkpt lat="44.38688" lon="5.93902">
        <ele>588</ele>
        <time>2019-05-16T11:08:58Z</time>
      </trkpt>
      <trkpt lat="44.38689" lon="5.93901">
        <ele>588</ele>
        <time>2019-05-16T11:08:59Z</time>
      </trkpt>
      <trkpt lat="44.38691" lon="5.93899">
        <ele>588</ele>
        <time>2019-05-16T11:09:00Z</time>
      </trkpt>
      <trkpt lat="44.38692" lon="5.93898">
        <ele>588</ele>
        <time>2019-05-16T11:09:01Z</time>
      </trkpt>
      <trkpt lat="44.38695" lon="5.93861">
        <ele>589</ele>
        <time>2019-05-16T11:09:16Z</time>
      </trkpt>
      <trkpt lat="44.38697" lon="5.93812">
        <ele>591</ele>
        <time>2019-05-16T11:09:36Z</time>
      </trkpt>
      <trkpt lat="44.38701" lon="5.93756">
        <ele>594</ele>
        <time>2019-05-16T11:09:59Z</time>
      </trkpt>
      <trkpt lat="44.38704" lon="5.93711">
        <ele>595</ele>
        <time>2019-05-16T11:10:17Z</time>
      </trkpt>
      <trkpt lat="44.3871" lon="5.93642">
        <ele>596</ele>
        <time>2019-05-16T11:10:39Z</time>
      </trkpt>
      <trkpt lat="44.38706" lon="5.93594">
        <ele>597</ele>
        <time>2019-05-16T11:10:53Z</time>
      </trkpt>
      <trkpt lat="44.38703" lon="5.93592">
        <ele>597</ele>
        <time>2019-05-16T11:10:54Z</time>
      </trkpt>
      <trkpt lat="44.38648" lon="5.93554">
        <ele>597</ele>
        <time>2019-05-16T11:11:09Z</time>
      </trkpt>
      <trkpt lat="44.38565" lon="5.93487">
        <ele>594</ele>
        <time>2019-05-16T11:11:25Z</time>
      </trkpt>
      <trkpt lat="44.38487" lon="5.93427">
        <ele>592</ele>
        <time>2019-05-16T11:11:42Z</time>
      </trkpt>
      <trkpt lat="44.38425" lon="5.93392">
        <ele>591</ele>
        <time>2019-05-16T11:11:58Z</time>
      </trkpt>
      <trkpt lat="44.38364" lon="5.93343">
        <ele>591</ele>
        <time>2019-05-16T11:12:16Z</time>
      </trkpt>
      <trkpt lat="44.38302" lon="5.93297">
        <ele>591</ele>
        <time>2019-05-16T11:12:36Z</time>
      </trkpt>
      <trkpt lat="44.38252" lon="5.93264">
        <ele>592</ele>
        <time>2019-05-16T11:12:54Z</time>
      </trkpt>
      <trkpt lat="44.38198" lon="5.93231">
        <ele>592</ele>
        <time>2019-05-16T11:13:13Z</time>
      </trkpt>
      <trkpt lat="44.38148" lon="5.93202">
        <ele>592</ele>
        <time>2019-05-16T11:13:29Z</time>
      </trkpt>
      <trkpt lat="44.38143" lon="5.93199">
        <ele>592</ele>
        <time>2019-05-16T11:13:31Z</time>
      </trkpt>
      <trkpt lat="44.3814" lon="5.93196">
        <ele>592</ele>
        <time>2019-05-16T11:13:32Z</time>
      </trkpt>
      <trkpt lat="44.38137" lon="5.93194">
        <ele>592</ele>
        <time>2019-05-16T11:13:33Z</time>
      </trkpt>
      <trkpt lat="44.38134" lon="5.93191">
        <ele>592</ele>
        <time>2019-05-16T11:13:34Z</time>
      </trkpt>
      <trkpt lat="44.3813" lon="5.93189">
        <ele>592</ele>
        <time>2019-05-16T11:13:35Z</time>
      </trkpt>
      <trkpt lat="44.38127" lon="5.93186">
        <ele>592</ele>
        <time>2019-05-16T11:13:36Z</time>
      </trkpt>
      <trkpt lat="44.38095" lon="5.93143">
        <ele>592</ele>
        <time>2019-05-16T11:13:49Z</time>
      </trkpt>
      <trkpt lat="44.38068" lon="5.9309">
        <ele>592</ele>
        <time>2019-05-16T11:14:04Z</time>
      </trkpt>
      <trkpt lat="44.38027" lon="5.93024">
        <ele>592</ele>
        <time>2019-05-16T11:14:23Z</time>
      </trkpt>
      <trkpt lat="44.37993" lon="5.92981">
        <ele>593</ele>
        <time>2019-05-16T11:14:38Z</time>
      </trkpt>
      <trkpt lat="44.37962" lon="5.92926">
        <ele>594</ele>
        <time>2019-05-16T11:14:54Z</time>
      </trkpt>
      <trkpt lat="44.37949" lon="5.92891">
        <ele>594</ele>
        <time>2019-05-16T11:15:01Z</time>
      </trkpt>
      <trkpt lat="44.37935" lon="5.92822">
        <ele>592</ele>
        <time>2019-05-16T11:15:15Z</time>
      </trkpt>
      <trkpt lat="44.37899" lon="5.92777">
        <ele>592</ele>
        <time>2019-05-16T11:15:28Z</time>
      </trkpt>
      <trkpt lat="44.37868" lon="5.9275">
        <ele>594</ele>
        <time>2019-05-16T11:15:45Z</time>
      </trkpt>
      <trkpt lat="44.37839" lon="5.92714">
        <ele>596</ele>
        <time>2019-05-16T11:16:03Z</time>
      </trkpt>
      <trkpt lat="44.37817" lon="5.92671">
        <ele>597</ele>
        <time>2019-05-16T11:16:17Z</time>
      </trkpt>
      <trkpt lat="44.37788" lon="5.92619">
        <ele>597</ele>
        <time>2019-05-16T11:16:33Z</time>
      </trkpt>
      <trkpt lat="44.37762" lon="5.9257">
        <ele>598</ele>
        <time>2019-05-16T11:16:48Z</time>
      </trkpt>
      <trkpt lat="44.37746" lon="5.92521">
        <ele>598</ele>
        <time>2019-05-16T11:17:03Z</time>
      </trkpt>
      <trkpt lat="44.37731" lon="5.92457">
        <ele>599</ele>
        <time>2019-05-16T11:17:20Z</time>
      </trkpt>
      <trkpt lat="44.37703" lon="5.92393">
        <ele>599</ele>
        <time>2019-05-16T11:17:37Z</time>
      </trkpt>
      <trkpt lat="44.37661" lon="5.92333">
        <ele>598</ele>
        <time>2019-05-16T11:17:54Z</time>
      </trkpt>
      <trkpt lat="44.3762" lon="5.92273">
        <ele>597</ele>
        <time>2019-05-16T11:18:08Z</time>
      </trkpt>
      <trkpt lat="44.37583" lon="5.92217">
        <ele>596</ele>
        <time>2019-05-16T11:18:20Z</time>
      </trkpt>
      <trkpt lat="44.37566" lon="5.92149">
        <ele>595</ele>
        <time>2019-05-16T11:18:34Z</time>
      </trkpt>
      <trkpt lat="44.37574" lon="5.92115">
        <ele>596</ele>
        <time>2019-05-16T11:18:49Z</time>
      </trkpt>
      <trkpt lat="44.37578" lon="5.92106">
        <ele>596</ele>
        <time>2019-05-16T11:18:52Z</time>
      </trkpt>
      <trkpt lat="44.37541" lon="5.91959">
        <ele>602</ele>
        <time>2019-05-16T11:19:53Z</time>
      </trkpt>
      <trkpt lat="44.37541" lon="5.91957">
        <ele>602</ele>
        <time>2019-05-16T11:19:54Z</time>
      </trkpt>
      <trkpt lat="44.37537" lon="5.91948">
        <ele>603</ele>
        <time>2019-05-16T11:19:58Z</time>
      </trkpt>
      <trkpt lat="44.37457" lon="5.91691">
        <ele>616</ele>
        <time>2019-05-16T11:21:58Z</time>
      </trkpt>
      <trkpt lat="44.37456" lon="5.91634">
        <ele>616</ele>
        <time>2019-05-16T11:22:13Z</time>
      </trkpt>
      <trkpt lat="44.37443" lon="5.91579">
        <ele>617</ele>
        <time>2019-05-16T11:22:31Z</time>
      </trkpt>
      <trkpt lat="44.37434" lon="5.91535">
        <ele>618</ele>
        <time>2019-05-16T11:22:46Z</time>
      </trkpt>
      <trkpt lat="44.37428" lon="5.91507">
        <ele>620</ele>
        <time>2019-05-16T11:22:59Z</time>
      </trkpt>
      <trkpt lat="44.37429" lon="5.91505">
        <ele>620</ele>
        <time>2019-05-16T11:23:00Z</time>
      </trkpt>
      <trkpt lat="44.37428" lon="5.91504">
        <ele>620</ele>
        <time>2019-05-16T11:23:01Z</time>
      </trkpt>
      <trkpt lat="44.37428" lon="5.91502">
        <ele>620</ele>
        <time>2019-05-16T11:23:02Z</time>
      </trkpt>
      <trkpt lat="44.37428" lon="5.91501">
        <ele>621</ele>
        <time>2019-05-16T11:23:03Z</time>
      </trkpt>
      <trkpt lat="44.37429" lon="5.91497">
        <ele>621</ele>
        <time>2019-05-16T11:23:05Z</time>
      </trkpt>
      <trkpt lat="44.37424" lon="5.91476">
        <ele>622</ele>
        <time>2019-05-16T11:23:15Z</time>
      </trkpt>
      <trkpt lat="44.37422" lon="5.91466">
        <ele>623</ele>
        <time>2019-05-16T11:23:19Z</time>
      </trkpt>
      <trkpt lat="44.37422" lon="5.9146">
        <ele>623</ele>
        <time>2019-05-16T11:23:21Z</time>
      </trkpt>
      <trkpt lat="44.37422" lon="5.91457">
        <ele>623</ele>
        <time>2019-05-16T11:23:22Z</time>
      </trkpt>
      <trkpt lat="44.37422" lon="5.91451">
        <ele>623</ele>
        <time>2019-05-16T11:23:24Z</time>
      </trkpt>
      <trkpt lat="44.37422" lon="5.91449">
        <ele>624</ele>
        <time>2019-05-16T11:23:25Z</time>
      </trkpt>
      <trkpt lat="44.37422" lon="5.91444">
        <ele>624</ele>
        <time>2019-05-16T11:23:27Z</time>
      </trkpt>
      <trkpt lat="44.37421" lon="5.91429">
        <ele>624</ele>
        <time>2019-05-16T11:23:32Z</time>
      </trkpt>
      <trkpt lat="44.3742" lon="5.9142">
        <ele>625</ele>
        <time>2019-05-16T11:23:35Z</time>
      </trkpt>
      <trkpt lat="44.37419" lon="5.91412">
        <ele>625</ele>
        <time>2019-05-16T11:23:38Z</time>
      </trkpt>
      <trkpt lat="44.37419" lon="5.91409">
        <ele>625</ele>
        <time>2019-05-16T11:23:39Z</time>
      </trkpt>
      <trkpt lat="44.37413" lon="5.91367">
        <ele>626</ele>
        <time>2019-05-16T11:23:55Z</time>
      </trkpt>
      <trkpt lat="44.37411" lon="5.91359">
        <ele>626</ele>
        <time>2019-05-16T11:23:59Z</time>
      </trkpt>
      <trkpt lat="44.37407" lon="5.9132">
        <ele>626</ele>
        <time>2019-05-16T11:24:14Z</time>
      </trkpt>
      <trkpt lat="44.37405" lon="5.91297">
        <ele>627</ele>
        <time>2019-05-16T11:24:20Z</time>
      </trkpt>
      <trkpt lat="44.37405" lon="5.91293">
        <ele>627</ele>
        <time>2019-05-16T11:24:21Z</time>
      </trkpt>
      <trkpt lat="44.37405" lon="5.9129">
        <ele>627</ele>
        <time>2019-05-16T11:24:22Z</time>
      </trkpt>
      <trkpt lat="44.37404" lon="5.91287">
        <ele>627</ele>
        <time>2019-05-16T11:24:23Z</time>
      </trkpt>
      <trkpt lat="44.37403" lon="5.91284">
        <ele>627</ele>
        <time>2019-05-16T11:24:24Z</time>
      </trkpt>
      <trkpt lat="44.37401" lon="5.91281">
        <ele>627</ele>
        <time>2019-05-16T11:24:25Z</time>
      </trkpt>
      <trkpt lat="44.37365" lon="5.91227">
        <ele>627</ele>
        <time>2019-05-16T11:24:39Z</time>
      </trkpt>
      <trkpt lat="44.37325" lon="5.91168">
        <ele>627</ele>
        <time>2019-05-16T11:24:55Z</time>
      </trkpt>
      <trkpt lat="44.3731" lon="5.91143">
        <ele>627</ele>
        <time>2019-05-16T11:25:07Z</time>
      </trkpt>
      <trkpt lat="44.37275" lon="5.91002">
        <ele>634</ele>
        <time>2019-05-16T11:26:08Z</time>
      </trkpt>
      <trkpt lat="44.37274" lon="5.90995">
        <ele>634</ele>
        <time>2019-05-16T11:26:11Z</time>
      </trkpt>
      <trkpt lat="44.37278" lon="5.90838">
        <ele>641</ele>
        <time>2019-05-16T11:27:13Z</time>
      </trkpt>
      <trkpt lat="44.37276" lon="5.90831">
        <ele>641</ele>
        <time>2019-05-16T11:27:15Z</time>
      </trkpt>
      <trkpt lat="44.37272" lon="5.90824">
        <ele>642</ele>
        <time>2019-05-16T11:27:18Z</time>
      </trkpt>
      <trkpt lat="44.37253" lon="5.90788">
        <ele>643</ele>
        <time>2019-05-16T11:27:33Z</time>
      </trkpt>
      <trkpt lat="44.37245" lon="5.90779">
        <ele>643</ele>
        <time>2019-05-16T11:27:39Z</time>
      </trkpt>
      <trkpt lat="44.37242" lon="5.90775">
        <ele>644</ele>
        <time>2019-05-16T11:27:42Z</time>
      </trkpt>
      <trkpt lat="44.37231" lon="5.9077">
        <ele>645</ele>
        <time>2019-05-16T11:27:48Z</time>
      </trkpt>
      <trkpt lat="44.37219" lon="5.90764">
        <ele>645</ele>
        <time>2019-05-16T11:27:55Z</time>
      </trkpt>
      <trkpt lat="44.37215" lon="5.90763">
        <ele>646</ele>
        <time>2019-05-16T11:27:57Z</time>
      </trkpt>
      <trkpt lat="44.37204" lon="5.90757">
        <ele>646</ele>
        <time>2019-05-16T11:28:03Z</time>
      </trkpt>
      <trkpt lat="44.37194" lon="5.90754">
        <ele>646</ele>
        <time>2019-05-16T11:28:08Z</time>
      </trkpt>
      <trkpt lat="44.37192" lon="5.90754">
        <ele>647</ele>
        <time>2019-05-16T11:28:09Z</time>
      </trkpt>
      <trkpt lat="44.37183" lon="5.90735">
        <ele>647</ele>
        <time>2019-05-16T11:28:22Z</time>
      </trkpt>
      <trkpt lat="44.37188" lon="5.90729">
        <ele>647</ele>
        <time>2019-05-16T11:28:26Z</time>
      </trkpt>
      <trkpt lat="44.37195" lon="5.9071">
        <ele>648</ele>
        <time>2019-05-16T11:28:33Z</time>
      </trkpt>
      <trkpt lat="44.37211" lon="5.90667">
        <ele>649</ele>
        <time>2019-05-16T11:28:50Z</time>
      </trkpt>
      <trkpt lat="44.37223" lon="5.90651">
        <ele>649</ele>
        <time>2019-05-16T11:29:00Z</time>
      </trkpt>
      <trkpt lat="44.37242" lon="5.90622">
        <ele>650</ele>
        <time>2019-05-16T11:29:13Z</time>
      </trkpt>
      <trkpt lat="44.37266" lon="5.90565">
        <ele>650</ele>
        <time>2019-05-16T11:29:28Z</time>
      </trkpt>
      <trkpt lat="44.37286" lon="5.90469">
        <ele>648</ele>
        <time>2019-05-16T11:29:40Z</time>
      </trkpt>
      <trkpt lat="44.37287" lon="5.90459">
        <ele>647</ele>
        <time>2019-05-16T11:29:41Z</time>
      </trkpt>
      <trkpt lat="44.37306" lon="5.90369">
        <ele>644</ele>
        <time>2019-05-16T11:29:50Z</time>
      </trkpt>
      <trkpt lat="44.37341" lon="5.90292">
        <ele>641</ele>
        <time>2019-05-16T11:29:58Z</time>
      </trkpt>
      <trkpt lat="44.37358" lon="5.90252">
        <ele>637</ele>
        <time>2019-05-16T11:30:04Z</time>
      </trkpt>
      <trkpt lat="44.37362" lon="5.90248">
        <ele>637</ele>
        <time>2019-05-16T11:30:05Z</time>
      </trkpt>
      <trkpt lat="44.37366" lon="5.90245">
        <ele>636</ele>
        <time>2019-05-16T11:30:06Z</time>
      </trkpt>
      <trkpt lat="44.3737" lon="5.90244">
        <ele>636</ele>
        <time>2019-05-16T11:30:07Z</time>
      </trkpt>
      <trkpt lat="44.37376" lon="5.90247">
        <ele>635</ele>
        <time>2019-05-16T11:30:08Z</time>
      </trkpt>
      <trkpt lat="44.37379" lon="5.90251">
        <ele>635</ele>
        <time>2019-05-16T11:30:09Z</time>
      </trkpt>
      <trkpt lat="44.37382" lon="5.90256">
        <ele>634</ele>
        <time>2019-05-16T11:30:10Z</time>
      </trkpt>
      <trkpt lat="44.37385" lon="5.90261">
        <ele>633</ele>
        <time>2019-05-16T11:30:11Z</time>
      </trkpt>
      <trkpt lat="44.37389" lon="5.90267">
        <ele>633</ele>
        <time>2019-05-16T11:30:12Z</time>
      </trkpt>
      <trkpt lat="44.37419" lon="5.90307">
        <ele>631</ele>
        <time>2019-05-16T11:30:20Z</time>
      </trkpt>
      <trkpt lat="44.37422" lon="5.9031">
        <ele>631</ele>
        <time>2019-05-16T11:30:21Z</time>
      </trkpt>
      <trkpt lat="44.37424" lon="5.90312">
        <ele>631</ele>
        <time>2019-05-16T11:30:22Z</time>
      </trkpt>
      <trkpt lat="44.37424" lon="5.90313">
        <ele>630</ele>
        <time>2019-05-16T11:30:23Z</time>
      </trkpt>
      <trkpt lat="44.37424" lon="5.90311">
        <ele>630</ele>
        <time>2019-05-16T11:30:24Z</time>
      </trkpt>
      <trkpt lat="44.37428" lon="5.90308">
        <ele>630</ele>
        <time>2019-05-16T11:30:25Z</time>
      </trkpt>
      <trkpt lat="44.3743" lon="5.90307">
        <ele>629</ele>
        <time>2019-05-16T11:30:26Z</time>
      </trkpt>
      <trkpt lat="44.37435" lon="5.903">
        <ele>629</ele>
        <time>2019-05-16T11:30:29Z</time>
      </trkpt>
      <trkpt lat="44.37436" lon="5.90296">
        <ele>629</ele>
        <time>2019-05-16T11:30:30Z</time>
      </trkpt>
      <trkpt lat="44.37435" lon="5.9029">
        <ele>628</ele>
        <time>2019-05-16T11:30:31Z</time>
      </trkpt>
      <trkpt lat="44.37434" lon="5.90287">
        <ele>628</ele>
        <time>2019-05-16T11:30:32Z</time>
      </trkpt>
      <trkpt lat="44.37433" lon="5.90283">
        <ele>628</ele>
        <time>2019-05-16T11:30:33Z</time>
      </trkpt>
      <trkpt lat="44.37416" lon="5.90262">
        <ele>628</ele>
        <time>2019-05-16T11:30:44Z</time>
      </trkpt>
      <trkpt lat="44.37415" lon="5.90262">
        <ele>627</ele>
        <time>2019-05-16T11:30:49Z</time>
      </trkpt>
      <trkpt lat="44.37406" lon="5.90255">
        <ele>627</ele>
        <time>2019-05-16T11:31:19Z</time>
      </trkpt>
      <trkpt lat="44.37355" lon="5.9019">
        <ele>626</ele>
        <time>2019-05-16T11:31:35Z</time>
      </trkpt>
      <trkpt lat="44.37292" lon="5.90107">
        <ele>624</ele>
        <time>2019-05-16T11:31:49Z</time>
      </trkpt>
      <trkpt lat="44.37221" lon="5.90009">
        <ele>621</ele>
        <time>2019-05-16T11:32:04Z</time>
      </trkpt>
      <trkpt lat="44.37174" lon="5.89951">
        <ele>619</ele>
        <time>2019-05-16T11:32:14Z</time>
      </trkpt>
      <trkpt lat="44.37155" lon="5.89942">
        <ele>618</ele>
        <time>2019-05-16T11:32:18Z</time>
      </trkpt>
      <trkpt lat="44.37151" lon="5.89941">
        <ele>618</ele>
        <time>2019-05-16T11:32:19Z</time>
      </trkpt>
      <trkpt lat="44.37146" lon="5.89941">
        <ele>618</ele>
        <time>2019-05-16T11:32:20Z</time>
      </trkpt>
      <trkpt lat="44.37142" lon="5.89942">
        <ele>618</ele>
        <time>2019-05-16T11:32:21Z</time>
      </trkpt>
      <trkpt lat="44.37138" lon="5.89943">
        <ele>618</ele>
        <time>2019-05-16T11:32:22Z</time>
      </trkpt>
      <trkpt lat="44.37134" lon="5.89944">
        <ele>618</ele>
        <time>2019-05-16T11:32:23Z</time>
      </trkpt>
      <trkpt lat="44.37099" lon="5.8998">
        <ele>619</ele>
        <time>2019-05-16T11:32:37Z</time>
      </trkpt>
      <trkpt lat="44.37065" lon="5.90011">
        <ele>621</ele>
        <time>2019-05-16T11:32:55Z</time>
      </trkpt>
      <trkpt lat="44.37018" lon="5.90001">
        <ele>623</ele>
        <time>2019-05-16T11:33:13Z</time>
      </trkpt>
      <trkpt lat="44.3696" lon="5.89974">
        <ele>623</ele>
        <time>2019-05-16T11:33:28Z</time>
      </trkpt>
      <trkpt lat="44.36861" lon="5.89913">
        <ele>620</ele>
        <time>2019-05-16T11:33:45Z</time>
      </trkpt>
      <trkpt lat="44.36812" lon="5.89861">
        <ele>617</ele>
        <time>2019-05-16T11:33:55Z</time>
      </trkpt>
      <trkpt lat="44.3679" lon="5.89814">
        <ele>616</ele>
        <time>2019-05-16T11:34:08Z</time>
      </trkpt>
      <trkpt lat="44.36761" lon="5.89744">
        <ele>618</ele>
        <time>2019-05-16T11:34:27Z</time>
      </trkpt>
      <trkpt lat="44.36714" lon="5.89671">
        <ele>618</ele>
        <time>2019-05-16T11:34:45Z</time>
      </trkpt>
      <trkpt lat="44.36674" lon="5.89604">
        <ele>618</ele>
        <time>2019-05-16T11:35:04Z</time>
      </trkpt>
      <trkpt lat="44.36666" lon="5.89595">
        <ele>617</ele>
        <time>2019-05-16T11:35:07Z</time>
      </trkpt>
      <trkpt lat="44.36614" lon="5.89516">
        <ele>616</ele>
        <time>2019-05-16T11:35:26Z</time>
      </trkpt>
      <trkpt lat="44.36579" lon="5.89459">
        <ele>617</ele>
        <time>2019-05-16T11:35:42Z</time>
      </trkpt>
      <trkpt lat="44.36554" lon="5.89387">
        <ele>617</ele>
        <time>2019-05-16T11:35:58Z</time>
      </trkpt>
      <trkpt lat="44.36543" lon="5.89314">
        <ele>617</ele>
        <time>2019-05-16T11:36:13Z</time>
      </trkpt>
      <trkpt lat="44.36524" lon="5.8926">
        <ele>618</ele>
        <time>2019-05-16T11:36:29Z</time>
      </trkpt>
      <trkpt lat="44.36507" lon="5.89207">
        <ele>620</ele>
        <time>2019-05-16T11:36:47Z</time>
      </trkpt>
      <trkpt lat="44.36485" lon="5.89147">
        <ele>622</ele>
        <time>2019-05-16T11:37:07Z</time>
      </trkpt>
      <trkpt lat="44.36464" lon="5.89109">
        <ele>623</ele>
        <time>2019-05-16T11:37:24Z</time>
      </trkpt>
      <trkpt lat="44.36462" lon="5.89112">
        <ele>623</ele>
        <time>2019-05-16T11:37:29Z</time>
      </trkpt>
      <trkpt lat="44.36462" lon="5.89087">
        <ele>623</ele>
        <time>2019-05-16T11:38:46Z</time>
      </trkpt>
      <trkpt lat="44.3646" lon="5.89085">
        <ele>623</ele>
        <time>2019-05-16T11:38:47Z</time>
      </trkpt>
      <trkpt lat="44.36459" lon="5.89082">
        <ele>623</ele>
        <time>2019-05-16T11:38:48Z</time>
      </trkpt>
      <trkpt lat="44.36458" lon="5.89079">
        <ele>623</ele>
        <time>2019-05-16T11:38:49Z</time>
      </trkpt>
      <trkpt lat="44.36457" lon="5.89075">
        <ele>624</ele>
        <time>2019-05-16T11:38:50Z</time>
      </trkpt>
      <trkpt lat="44.36456" lon="5.89072">
        <ele>624</ele>
        <time>2019-05-16T11:38:51Z</time>
      </trkpt>
      <trkpt lat="44.36455" lon="5.89069">
        <ele>624</ele>
        <time>2019-05-16T11:38:52Z</time>
      </trkpt>
      <trkpt lat="44.36437" lon="5.89014">
        <ele>626</ele>
        <time>2019-05-16T11:39:08Z</time>
      </trkpt>
      <trkpt lat="44.36422" lon="5.88978">
        <ele>627</ele>
        <time>2019-05-16T11:39:18Z</time>
      </trkpt>
      <trkpt lat="44.36395" lon="5.88904">
        <ele>627</ele>
        <time>2019-05-16T11:39:32Z</time>
      </trkpt>
      <trkpt lat="44.36373" lon="5.88857">
        <ele>628</ele>
        <time>2019-05-16T11:39:46Z</time>
      </trkpt>
      <trkpt lat="44.36347" lon="5.88779">
        <ele>630</ele>
        <time>2019-05-16T11:40:07Z</time>
      </trkpt>
      <trkpt lat="44.36346" lon="5.88713">
        <ele>631</ele>
        <time>2019-05-16T11:40:22Z</time>
      </trkpt>
      <trkpt lat="44.36369" lon="5.88655">
        <ele>631</ele>
        <time>2019-05-16T11:40:32Z</time>
      </trkpt>
      <trkpt lat="44.36377" lon="5.88592">
        <ele>631</ele>
        <time>2019-05-16T11:40:42Z</time>
      </trkpt>
      <trkpt lat="44.36377" lon="5.88515">
        <ele>631</ele>
        <time>2019-05-16T11:40:55Z</time>
      </trkpt>
      <trkpt lat="44.36378" lon="5.88488">
        <ele>631</ele>
        <time>2019-05-16T11:40:59Z</time>
      </trkpt>
      <trkpt lat="44.36377" lon="5.88455">
        <ele>630</ele>
        <time>2019-05-16T11:41:03Z</time>
      </trkpt>
      <trkpt lat="44.36366" lon="5.88398">
        <ele>630</ele>
        <time>2019-05-16T11:41:09Z</time>
      </trkpt>
      <trkpt lat="44.36362" lon="5.88389">
        <ele>629</ele>
        <time>2019-05-16T11:41:10Z</time>
      </trkpt>
      <trkpt lat="44.36328" lon="5.88303">
        <ele>628</ele>
        <time>2019-05-16T11:41:22Z</time>
      </trkpt>
      <trkpt lat="44.36318" lon="5.88245">
        <ele>629</ele>
        <time>2019-05-16T11:41:35Z</time>
      </trkpt>
      <trkpt lat="44.36304" lon="5.88177">
        <ele>631</ele>
        <time>2019-05-16T11:41:50Z</time>
      </trkpt>
      <trkpt lat="44.3628" lon="5.88094">
        <ele>632</ele>
        <time>2019-05-16T11:42:07Z</time>
      </trkpt>
      <trkpt lat="44.36257" lon="5.88017">
        <ele>632</ele>
        <time>2019-05-16T11:42:21Z</time>
      </trkpt>
      <trkpt lat="44.36245" lon="5.87963">
        <ele>634</ele>
        <time>2019-05-16T11:42:36Z</time>
      </trkpt>
      <trkpt lat="44.36251" lon="5.87891">
        <ele>636</ele>
        <time>2019-05-16T11:42:55Z</time>
      </trkpt>
      <trkpt lat="44.36241" lon="5.87829">
        <ele>637</ele>
        <time>2019-05-16T11:43:08Z</time>
      </trkpt>
      <trkpt lat="44.36225" lon="5.87756">
        <ele>638</ele>
        <time>2019-05-16T11:43:25Z</time>
      </trkpt>
      <trkpt lat="44.36222" lon="5.87689">
        <ele>639</ele>
        <time>2019-05-16T11:43:43Z</time>
      </trkpt>
      <trkpt lat="44.36217" lon="5.87631">
        <ele>641</ele>
        <time>2019-05-16T11:44:00Z</time>
      </trkpt>
      <trkpt lat="44.362" lon="5.87562">
        <ele>643</ele>
        <time>2019-05-16T11:44:21Z</time>
      </trkpt>
      <trkpt lat="44.36194" lon="5.87502">
        <ele>646</ele>
        <time>2019-05-16T11:44:38Z</time>
      </trkpt>
      <trkpt lat="44.36197" lon="5.87442">
        <ele>648</ele>
        <time>2019-05-16T11:44:55Z</time>
      </trkpt>
      <trkpt lat="44.3621" lon="5.87379">
        <ele>650</ele>
        <time>2019-05-16T11:45:13Z</time>
      </trkpt>
      <trkpt lat="44.36198" lon="5.87336">
        <ele>651</ele>
        <time>2019-05-16T11:45:29Z</time>
      </trkpt>
      <trkpt lat="44.36196" lon="5.87337">
        <ele>651</ele>
        <time>2019-05-16T11:45:34Z</time>
      </trkpt>
      <trkpt lat="44.36185" lon="5.87331">
        <ele>652</ele>
        <time>2019-05-16T11:47:03Z</time>
      </trkpt>
      <trkpt lat="44.3618" lon="5.87315">
        <ele>652</ele>
        <time>2019-05-16T11:47:09Z</time>
      </trkpt>
      <trkpt lat="44.36174" lon="5.87305">
        <ele>653</ele>
        <time>2019-05-16T11:47:14Z</time>
      </trkpt>
      <trkpt lat="44.36159" lon="5.87279">
        <ele>655</ele>
        <time>2019-05-16T11:47:28Z</time>
      </trkpt>
      <trkpt lat="44.3615" lon="5.87262">
        <ele>657</ele>
        <time>2019-05-16T11:47:37Z</time>
      </trkpt>
      <trkpt lat="44.36142" lon="5.87246">
        <ele>658</ele>
        <time>2019-05-16T11:47:44Z</time>
      </trkpt>
      <trkpt lat="44.36138" lon="5.87234">
        <ele>658</ele>
        <time>2019-05-16T11:47:50Z</time>
      </trkpt>
      <trkpt lat="44.36132" lon="5.87214">
        <ele>660</ele>
        <time>2019-05-16T11:48:00Z</time>
      </trkpt>
      <trkpt lat="44.36132" lon="5.87212">
        <ele>660</ele>
        <time>2019-05-16T11:48:01Z</time>
      </trkpt>
      <trkpt lat="44.36129" lon="5.87203">
        <ele>660</ele>
        <time>2019-05-16T11:48:05Z</time>
      </trkpt>
      <trkpt lat="44.36127" lon="5.87194">
        <ele>661</ele>
        <time>2019-05-16T11:48:09Z</time>
      </trkpt>
      <trkpt lat="44.36127" lon="5.87186">
        <ele>661</ele>
        <time>2019-05-16T11:48:12Z</time>
      </trkpt>
      <trkpt lat="44.36123" lon="5.87165">
        <ele>662</ele>
        <time>2019-05-16T11:48:21Z</time>
      </trkpt>
      <trkpt lat="44.3612" lon="5.87149">
        <ele>663</ele>
        <time>2019-05-16T11:48:29Z</time>
      </trkpt>
      <trkpt lat="44.36119" lon="5.87144">
        <ele>663</ele>
        <time>2019-05-16T11:48:32Z</time>
      </trkpt>
      <trkpt lat="44.36117" lon="5.8714">
        <ele>664</ele>
        <time>2019-05-16T11:48:34Z</time>
      </trkpt>
      <trkpt lat="44.36115" lon="5.87121">
        <ele>665</ele>
        <time>2019-05-16T11:48:42Z</time>
      </trkpt>
      <trkpt lat="44.36113" lon="5.87104">
        <ele>666</ele>
        <time>2019-05-16T11:48:50Z</time>
      </trkpt>
      <trkpt lat="44.36112" lon="5.871">
        <ele>666</ele>
        <time>2019-05-16T11:48:52Z</time>
      </trkpt>
      <trkpt lat="44.36111" lon="5.87094">
        <ele>666</ele>
        <time>2019-05-16T11:48:55Z</time>
      </trkpt>
      <trkpt lat="44.36111" lon="5.87082">
        <ele>667</ele>
        <time>2019-05-16T11:49:00Z</time>
      </trkpt>
      <trkpt lat="44.36109" lon="5.87073">
        <ele>667</ele>
        <time>2019-05-16T11:49:04Z</time>
      </trkpt>
      <trkpt lat="44.36105" lon="5.8706">
        <ele>668</ele>
        <time>2019-05-16T11:49:10Z</time>
      </trkpt>
      <trkpt lat="44.36104" lon="5.87057">
        <ele>668</ele>
        <time>2019-05-16T11:49:11Z</time>
      </trkpt>
      <trkpt lat="44.36103" lon="5.87055">
        <ele>668</ele>
        <time>2019-05-16T11:49:12Z</time>
      </trkpt>
      <trkpt lat="44.36103" lon="5.87054">
        <ele>668</ele>
        <time>2019-05-16T11:49:13Z</time>
      </trkpt>
      <trkpt lat="44.36102" lon="5.87046">
        <ele>669</ele>
        <time>2019-05-16T11:49:17Z</time>
      </trkpt>
      <trkpt lat="44.36099" lon="5.87033">
        <ele>669</ele>
        <time>2019-05-16T11:49:23Z</time>
      </trkpt>
      <trkpt lat="44.36091" lon="5.87013">
        <ele>670</ele>
        <time>2019-05-16T11:49:32Z</time>
      </trkpt>
      <trkpt lat="44.3609" lon="5.87011">
        <ele>670</ele>
        <time>2019-05-16T11:49:33Z</time>
      </trkpt>
      <trkpt lat="44.36089" lon="5.87009">
        <ele>671</ele>
        <time>2019-05-16T11:49:34Z</time>
      </trkpt>
      <trkpt lat="44.36089" lon="5.87007">
        <ele>671</ele>
        <time>2019-05-16T11:49:35Z</time>
      </trkpt>
      <trkpt lat="44.36088" lon="5.87005">
        <ele>671</ele>
        <time>2019-05-16T11:49:36Z</time>
      </trkpt>
      <trkpt lat="44.36086" lon="5.86995">
        <ele>671</ele>
        <time>2019-05-16T11:49:41Z</time>
      </trkpt>
      <trkpt lat="44.36085" lon="5.86993">
        <ele>671</ele>
        <time>2019-05-16T11:49:42Z</time>
      </trkpt>
      <trkpt lat="44.36085" lon="5.86988">
        <ele>672</ele>
        <time>2019-05-16T11:49:44Z</time>
      </trkpt>
      <trkpt lat="44.36084" lon="5.86986">
        <ele>672</ele>
        <time>2019-05-16T11:49:45Z</time>
      </trkpt>
      <trkpt lat="44.36067" lon="5.86955">
        <ele>674</ele>
        <time>2019-05-16T11:50:01Z</time>
      </trkpt>
      <trkpt lat="44.36064" lon="5.86949">
        <ele>674</ele>
        <time>2019-05-16T11:50:05Z</time>
      </trkpt>
      <trkpt lat="44.36062" lon="5.86947">
        <ele>674</ele>
        <time>2019-05-16T11:50:06Z</time>
      </trkpt>
      <trkpt lat="44.3606" lon="5.86946">
        <ele>674</ele>
        <time>2019-05-16T11:50:07Z</time>
      </trkpt>
      <trkpt lat="44.36059" lon="5.86945">
        <ele>675</ele>
        <time>2019-05-16T11:50:08Z</time>
      </trkpt>
      <trkpt lat="44.36057" lon="5.86945">
        <ele>675</ele>
        <time>2019-05-16T11:50:09Z</time>
      </trkpt>
      <trkpt lat="44.36053" lon="5.86943">
        <ele>675</ele>
        <time>2019-05-16T11:50:12Z</time>
      </trkpt>
      <trkpt lat="44.36043" lon="5.86928">
        <ele>675</ele>
        <time>2019-05-16T11:50:20Z</time>
      </trkpt>
      <trkpt lat="44.36042" lon="5.86926">
        <ele>676</ele>
        <time>2019-05-16T11:50:21Z</time>
      </trkpt>
      <trkpt lat="44.36038" lon="5.8692">
        <ele>676</ele>
        <time>2019-05-16T11:50:24Z</time>
      </trkpt>
      <trkpt lat="44.36028" lon="5.86908">
        <ele>677</ele>
        <time>2019-05-16T11:50:31Z</time>
      </trkpt>
      <trkpt lat="44.36023" lon="5.86892">
        <ele>677</ele>
        <time>2019-05-16T11:50:37Z</time>
      </trkpt>
      <trkpt lat="44.3602" lon="5.86874">
        <ele>677</ele>
        <time>2019-05-16T11:50:44Z</time>
      </trkpt>
      <trkpt lat="44.36014" lon="5.86854">
        <ele>678</ele>
        <time>2019-05-16T11:50:52Z</time>
      </trkpt>
      <trkpt lat="44.35997" lon="5.86829">
        <ele>679</ele>
        <time>2019-05-16T11:51:04Z</time>
      </trkpt>
      <trkpt lat="44.35995" lon="5.86826">
        <ele>679</ele>
        <time>2019-05-16T11:51:05Z</time>
      </trkpt>
      <trkpt lat="44.35991" lon="5.86805">
        <ele>680</ele>
        <time>2019-05-16T11:51:12Z</time>
      </trkpt>
      <trkpt lat="44.35988" lon="5.86797">
        <ele>680</ele>
        <time>2019-05-16T11:51:15Z</time>
      </trkpt>
      <trkpt lat="44.35988" lon="5.86794">
        <ele>680</ele>
        <time>2019-05-16T11:51:16Z</time>
      </trkpt>
      <trkpt lat="44.35987" lon="5.86791">
        <ele>680</ele>
        <time>2019-05-16T11:51:17Z</time>
      </trkpt>
      <trkpt lat="44.35973" lon="5.86762">
        <ele>681</ele>
        <time>2019-05-16T11:51:30Z</time>
      </trkpt>
      <trkpt lat="44.35973" lon="5.8676">
        <ele>681</ele>
        <time>2019-05-16T11:51:31Z</time>
      </trkpt>
      <trkpt lat="44.35972" lon="5.86757">
        <ele>682</ele>
        <time>2019-05-16T11:51:32Z</time>
      </trkpt>
      <trkpt lat="44.3597" lon="5.86754">
        <ele>682</ele>
        <time>2019-05-16T11:51:33Z</time>
      </trkpt>
      <trkpt lat="44.35969" lon="5.86752">
        <ele>682</ele>
        <time>2019-05-16T11:51:34Z</time>
      </trkpt>
      <trkpt lat="44.35968" lon="5.86749">
        <ele>682</ele>
        <time>2019-05-16T11:51:35Z</time>
      </trkpt>
      <trkpt lat="44.35967" lon="5.86746">
        <ele>682</ele>
        <time>2019-05-16T11:51:36Z</time>
      </trkpt>
      <trkpt lat="44.35954" lon="5.867">
        <ele>683</ele>
        <time>2019-05-16T11:51:51Z</time>
      </trkpt>
      <trkpt lat="44.3594" lon="5.86642">
        <ele>683</ele>
        <time>2019-05-16T11:52:10Z</time>
      </trkpt>
      <trkpt lat="44.35932" lon="5.86586">
        <ele>684</ele>
        <time>2019-05-16T11:52:27Z</time>
      </trkpt>
      <trkpt lat="44.35917" lon="5.86528">
        <ele>684</ele>
        <time>2019-05-16T11:52:45Z</time>
      </trkpt>
      <trkpt lat="44.35906" lon="5.8647">
        <ele>685</ele>
        <time>2019-05-16T11:53:03Z</time>
      </trkpt>
      <trkpt lat="44.35894" lon="5.8642">
        <ele>686</ele>
        <time>2019-05-16T11:53:21Z</time>
      </trkpt>
      <trkpt lat="44.35885" lon="5.86368">
        <ele>686</ele>
        <time>2019-05-16T11:53:37Z</time>
      </trkpt>
      <trkpt lat="44.35871" lon="5.86326">
        <ele>686</ele>
        <time>2019-05-16T11:53:51Z</time>
      </trkpt>
      <trkpt lat="44.3585" lon="5.86272">
        <ele>686</ele>
        <time>2019-05-16T11:54:06Z</time>
      </trkpt>
      <trkpt lat="44.35847" lon="5.86268">
        <ele>686</ele>
        <time>2019-05-16T11:54:13Z</time>
      </trkpt>
      <trkpt lat="44.35838" lon="5.86252">
        <ele>686</ele>
        <time>2019-05-16T11:54:22Z</time>
      </trkpt>
      <trkpt lat="44.35813" lon="5.86181">
        <ele>685</ele>
        <time>2019-05-16T11:54:39Z</time>
      </trkpt>
      <trkpt lat="44.35802" lon="5.861">
        <ele>685</ele>
        <time>2019-05-16T11:54:54Z</time>
      </trkpt>
      <trkpt lat="44.35779" lon="5.86029">
        <ele>685</ele>
        <time>2019-05-16T11:55:07Z</time>
      </trkpt>
      <trkpt lat="44.35719" lon="5.85928">
        <ele>683</ele>
        <time>2019-05-16T11:55:26Z</time>
      </trkpt>
      <trkpt lat="44.35663" lon="5.85836">
        <ele>681</ele>
        <time>2019-05-16T11:55:41Z</time>
      </trkpt>
      <trkpt lat="44.35597" lon="5.85739">
        <ele>678</ele>
        <time>2019-05-16T11:55:56Z</time>
      </trkpt>
      <trkpt lat="44.35509" lon="5.85644">
        <ele>675</ele>
        <time>2019-05-16T11:56:12Z</time>
      </trkpt>
      <trkpt lat="44.35437" lon="5.85564">
        <ele>672</ele>
        <time>2019-05-16T11:56:26Z</time>
      </trkpt>
      <trkpt lat="44.35364" lon="5.85486">
        <ele>669</ele>
        <time>2019-05-16T11:56:41Z</time>
      </trkpt>
      <trkpt lat="44.3532" lon="5.85436">
        <ele>666</ele>
        <time>2019-05-16T11:56:52Z</time>
      </trkpt>
      <trkpt lat="44.35287" lon="5.85342">
        <ele>664</ele>
        <time>2019-05-16T11:57:07Z</time>
      </trkpt>
      <trkpt lat="44.35251" lon="5.85233">
        <ele>662</ele>
        <time>2019-05-16T11:57:22Z</time>
      </trkpt>
      <trkpt lat="44.35216" lon="5.85145">
        <ele>661</ele>
        <time>2019-05-16T11:57:33Z</time>
      </trkpt>
      <trkpt lat="44.35174" lon="5.85085">
        <ele>659</ele>
        <time>2019-05-16T11:57:44Z</time>
      </trkpt>
      <trkpt lat="44.35145" lon="5.85052">
        <ele>658</ele>
        <time>2019-05-16T11:57:52Z</time>
      </trkpt>
      <trkpt lat="44.35131" lon="5.85026">
        <ele>658</ele>
        <time>2019-05-16T11:57:56Z</time>
      </trkpt>
      <trkpt lat="44.3509" lon="5.84929">
        <ele>656</ele>
        <time>2019-05-16T11:58:10Z</time>
      </trkpt>
      <trkpt lat="44.35007" lon="5.84811">
        <ele>653</ele>
        <time>2019-05-16T11:58:29Z</time>
      </trkpt>
      <trkpt lat="44.34982" lon="5.84789">
        <ele>652</ele>
        <time>2019-05-16T11:58:39Z</time>
      </trkpt>
      <trkpt lat="44.34982" lon="5.8479">
        <ele>651</ele>
        <time>2019-05-16T11:58:43Z</time>
      </trkpt>
      <trkpt lat="44.34971" lon="5.84784">
        <ele>651</ele>
        <time>2019-05-16T11:59:01Z</time>
      </trkpt>
      <trkpt lat="44.34926" lon="5.84741">
        <ele>651</ele>
        <time>2019-05-16T11:59:13Z</time>
      </trkpt>
      <trkpt lat="44.34872" lon="5.84656">
        <ele>650</ele>
        <time>2019-05-16T11:59:28Z</time>
      </trkpt>
      <trkpt lat="44.34806" lon="5.84561">
        <ele>649</ele>
        <time>2019-05-16T11:59:45Z</time>
      </trkpt>
      <trkpt lat="44.3473" lon="5.84469">
        <ele>647</ele>
        <time>2019-05-16T12:00:04Z</time>
      </trkpt>
      <trkpt lat="44.34664" lon="5.8439">
        <ele>646</ele>
        <time>2019-05-16T12:00:19Z</time>
      </trkpt>
      <trkpt lat="44.34655" lon="5.84371">
        <ele>646</ele>
        <time>2019-05-16T12:00:22Z</time>
      </trkpt>
      <trkpt lat="44.3465" lon="5.84358">
        <ele>644</ele>
        <time>2019-05-16T12:00:29Z</time>
      </trkpt>
      <trkpt lat="44.3465" lon="5.84359">
        <ele>644</ele>
        <time>2019-05-16T12:00:30Z</time>
      </trkpt>
      <trkpt lat="44.34639" lon="5.84387">
        <ele>643</ele>
        <time>2019-05-16T12:01:15Z</time>
      </trkpt>
      <trkpt lat="44.34636" lon="5.8439">
        <ele>643</ele>
        <time>2019-05-16T12:01:16Z</time>
      </trkpt>
      <trkpt lat="44.34633" lon="5.84394">
        <ele>643</ele>
        <time>2019-05-16T12:01:17Z</time>
      </trkpt>
      <trkpt lat="44.3463" lon="5.84398">
        <ele>643</ele>
        <time>2019-05-16T12:01:18Z</time>
      </trkpt>
      <trkpt lat="44.34627" lon="5.84403">
        <ele>643</ele>
        <time>2019-05-16T12:01:19Z</time>
      </trkpt>
      <trkpt lat="44.34625" lon="5.84407">
        <ele>643</ele>
        <time>2019-05-16T12:01:20Z</time>
      </trkpt>
      <trkpt lat="44.34622" lon="5.84413">
        <ele>643</ele>
        <time>2019-05-16T12:01:21Z</time>
      </trkpt>
      <trkpt lat="44.34621" lon="5.84418">
        <ele>643</ele>
        <time>2019-05-16T12:01:22Z</time>
      </trkpt>
      <trkpt lat="44.34613" lon="5.84507">
        <ele>643</ele>
        <time>2019-05-16T12:01:37Z</time>
      </trkpt>
      <trkpt lat="44.34615" lon="5.8458">
        <ele>643</ele>
        <time>2019-05-16T12:01:53Z</time>
      </trkpt>
      <trkpt lat="44.34619" lon="5.84659">
        <ele>644</ele>
        <time>2019-05-16T12:02:10Z</time>
      </trkpt>
      <trkpt lat="44.34622" lon="5.84727">
        <ele>646</ele>
        <time>2019-05-16T12:02:27Z</time>
      </trkpt>
      <trkpt lat="44.34625" lon="5.8479">
        <ele>644</ele>
        <time>2019-05-16T12:02:43Z</time>
      </trkpt>
      <trkpt lat="44.34597" lon="5.8487">
        <ele>644</ele>
        <time>2019-05-16T12:03:01Z</time>
      </trkpt>
      <trkpt lat="44.34581" lon="5.84918">
        <ele>644</ele>
        <time>2019-05-16T12:03:16Z</time>
      </trkpt>
      <trkpt lat="44.34562" lon="5.84962">
        <ele>647</ele>
        <time>2019-05-16T12:03:31Z</time>
      </trkpt>
      <trkpt lat="44.34543" lon="5.85008">
        <ele>648</ele>
        <time>2019-05-16T12:03:46Z</time>
      </trkpt>
      <trkpt lat="44.34525" lon="5.85057">
        <ele>650</ele>
        <time>2019-05-16T12:04:03Z</time>
      </trkpt>
      <trkpt lat="44.34516" lon="5.85104">
        <ele>651</ele>
        <time>2019-05-16T12:04:18Z</time>
      </trkpt>
      <trkpt lat="44.34503" lon="5.85151">
        <ele>651</ele>
        <time>2019-05-16T12:04:32Z</time>
      </trkpt>
      <trkpt lat="44.34483" lon="5.85202">
        <ele>652</ele>
        <time>2019-05-16T12:04:50Z</time>
      </trkpt>
      <trkpt lat="44.34467" lon="5.85252">
        <ele>653</ele>
        <time>2019-05-16T12:05:06Z</time>
      </trkpt>
      <trkpt lat="44.34447" lon="5.85319">
        <ele>653</ele>
        <time>2019-05-16T12:05:26Z</time>
      </trkpt>
      <trkpt lat="44.34445" lon="5.85378">
        <ele>654</ele>
        <time>2019-05-16T12:05:44Z</time>
      </trkpt>
      <trkpt lat="44.34464" lon="5.85418">
        <ele>655</ele>
        <time>2019-05-16T12:05:58Z</time>
      </trkpt>
      <trkpt lat="44.3448" lon="5.85483">
        <ele>656</ele>
        <time>2019-05-16T12:06:13Z</time>
      </trkpt>
      <trkpt lat="44.34491" lon="5.85544">
        <ele>656</ele>
        <time>2019-05-16T12:06:28Z</time>
      </trkpt>
      <trkpt lat="44.34472" lon="5.85589">
        <ele>656</ele>
        <time>2019-05-16T12:06:40Z</time>
      </trkpt>
      <trkpt lat="44.34446" lon="5.85648">
        <ele>656</ele>
        <time>2019-05-16T12:06:57Z</time>
      </trkpt>
      <trkpt lat="44.34435" lon="5.85712">
        <ele>656</ele>
        <time>2019-05-16T12:07:13Z</time>
      </trkpt>
      <trkpt lat="44.34423" lon="5.85792">
        <ele>656</ele>
        <time>2019-05-16T12:07:32Z</time>
      </trkpt>
      <trkpt lat="44.34416" lon="5.85862">
        <ele>657</ele>
        <time>2019-05-16T12:07:49Z</time>
      </trkpt>
      <trkpt lat="44.34408" lon="5.85936">
        <ele>656</ele>
        <time>2019-05-16T12:08:07Z</time>
      </trkpt>
      <trkpt lat="44.34409" lon="5.85999">
        <ele>656</ele>
        <time>2019-05-16T12:08:22Z</time>
      </trkpt>
      <trkpt lat="44.34443" lon="5.86041">
        <ele>656</ele>
        <time>2019-05-16T12:08:36Z</time>
      </trkpt>
      <trkpt lat="44.34481" lon="5.86089">
        <ele>656</ele>
        <time>2019-05-16T12:08:51Z</time>
      </trkpt>
      <trkpt lat="44.34505" lon="5.86153">
        <ele>657</ele>
        <time>2019-05-16T12:09:06Z</time>
      </trkpt>
      <trkpt lat="44.34514" lon="5.86218">
        <ele>657</ele>
        <time>2019-05-16T12:09:20Z</time>
      </trkpt>
      <trkpt lat="44.34535" lon="5.8628">
        <ele>656</ele>
        <time>2019-05-16T12:09:35Z</time>
      </trkpt>
      <trkpt lat="44.34561" lon="5.86349">
        <ele>656</ele>
        <time>2019-05-16T12:09:53Z</time>
      </trkpt>
      <trkpt lat="44.34587" lon="5.86425">
        <ele>656</ele>
        <time>2019-05-16T12:10:12Z</time>
      </trkpt>
      <trkpt lat="44.34595" lon="5.86501">
        <ele>656</ele>
        <time>2019-05-16T12:10:30Z</time>
      </trkpt>
      <trkpt lat="44.34589" lon="5.86568">
        <ele>656</ele>
        <time>2019-05-16T12:10:46Z</time>
      </trkpt>
      <trkpt lat="44.34577" lon="5.86629">
        <ele>656</ele>
        <time>2019-05-16T12:11:02Z</time>
      </trkpt>
      <trkpt lat="44.34572" lon="5.86676">
        <ele>656</ele>
        <time>2019-05-16T12:11:17Z</time>
      </trkpt>
      <trkpt lat="44.3457" lon="5.86682">
        <ele>656</ele>
        <time>2019-05-16T12:11:20Z</time>
      </trkpt>
      <trkpt lat="44.34568" lon="5.8669">
        <ele>657</ele>
        <time>2019-05-16T12:11:23Z</time>
      </trkpt>
      <trkpt lat="44.34562" lon="5.86703">
        <ele>658</ele>
        <time>2019-05-16T12:11:29Z</time>
      </trkpt>
      <trkpt lat="44.34561" lon="5.86706">
        <ele>658</ele>
        <time>2019-05-16T12:11:30Z</time>
      </trkpt>
      <trkpt lat="44.34558" lon="5.86712">
        <ele>659</ele>
        <time>2019-05-16T12:11:33Z</time>
      </trkpt>
      <trkpt lat="44.34556" lon="5.86714">
        <ele>659</ele>
        <time>2019-05-16T12:11:34Z</time>
      </trkpt>
      <trkpt lat="44.34554" lon="5.86717">
        <ele>659</ele>
        <time>2019-05-16T12:11:35Z</time>
      </trkpt>
      <trkpt lat="44.34552" lon="5.86718">
        <ele>659</ele>
        <time>2019-05-16T12:11:36Z</time>
      </trkpt>
      <trkpt lat="44.34551" lon="5.8672">
        <ele>659</ele>
        <time>2019-05-16T12:11:37Z</time>
      </trkpt>
      <trkpt lat="44.34526" lon="5.86744">
        <ele>661</ele>
        <time>2019-05-16T12:11:53Z</time>
      </trkpt>
      <trkpt lat="44.34516" lon="5.86753">
        <ele>662</ele>
        <time>2019-05-16T12:12:01Z</time>
      </trkpt>
      <trkpt lat="44.34508" lon="5.8676">
        <ele>662</ele>
        <time>2019-05-16T12:12:07Z</time>
      </trkpt>
      <trkpt lat="44.34496" lon="5.86772">
        <ele>663</ele>
        <time>2019-05-16T12:12:16Z</time>
      </trkpt>
      <trkpt lat="44.34495" lon="5.86774">
        <ele>663</ele>
        <time>2019-05-16T12:12:17Z</time>
      </trkpt>
      <trkpt lat="44.34493" lon="5.86776">
        <ele>663</ele>
        <time>2019-05-16T12:12:18Z</time>
      </trkpt>
      <trkpt lat="44.34493" lon="5.86778">
        <ele>663</ele>
        <time>2019-05-16T12:12:19Z</time>
      </trkpt>
      <trkpt lat="44.34494" lon="5.86786">
        <ele>664</ele>
        <time>2019-05-16T12:12:23Z</time>
      </trkpt>
      <trkpt lat="44.34495" lon="5.86795">
        <ele>664</ele>
        <time>2019-05-16T12:12:29Z</time>
      </trkpt>
      <trkpt lat="44.34505" lon="5.86806">
        <ele>666</ele>
        <time>2019-05-16T12:12:41Z</time>
      </trkpt>
      <trkpt lat="44.34505" lon="5.8681">
        <ele>667</ele>
        <time>2019-05-16T12:12:44Z</time>
      </trkpt>
      <trkpt lat="44.34498" lon="5.86821">
        <ele>669</ele>
        <time>2019-05-16T12:12:52Z</time>
      </trkpt>
      <trkpt lat="44.34496" lon="5.86822">
        <ele>669</ele>
        <time>2019-05-16T12:12:53Z</time>
      </trkpt>
      <trkpt lat="44.34489" lon="5.86827">
        <ele>670</ele>
        <time>2019-05-16T12:12:57Z</time>
      </trkpt>
      <trkpt lat="44.3448" lon="5.86836">
        <ele>670</ele>
        <time>2019-05-16T12:13:05Z</time>
      </trkpt>
      <trkpt lat="44.34473" lon="5.8684">
        <ele>671</ele>
        <time>2019-05-16T12:13:12Z</time>
      </trkpt>
      <trkpt lat="44.3447" lon="5.86842">
        <ele>672</ele>
        <time>2019-05-16T12:13:15Z</time>
      </trkpt>
      <trkpt lat="44.34457" lon="5.86852">
        <ele>673</ele>
        <time>2019-05-16T12:13:27Z</time>
      </trkpt>
      <trkpt lat="44.34454" lon="5.86853">
        <ele>673</ele>
        <time>2019-05-16T12:13:29Z</time>
      </trkpt>
      <trkpt lat="44.34452" lon="5.86853">
        <ele>673</ele>
        <time>2019-05-16T12:13:30Z</time>
      </trkpt>
      <trkpt lat="44.34444" lon="5.86854">
        <ele>674</ele>
        <time>2019-05-16T12:13:36Z</time>
      </trkpt>
      <trkpt lat="44.34433" lon="5.86859">
        <ele>675</ele>
        <time>2019-05-16T12:13:45Z</time>
      </trkpt>
      <trkpt lat="44.3443" lon="5.86859">
        <ele>675</ele>
        <time>2019-05-16T12:13:47Z</time>
      </trkpt>
      <trkpt lat="44.34429" lon="5.8686">
        <ele>675</ele>
        <time>2019-05-16T12:13:48Z</time>
      </trkpt>
      <trkpt lat="44.34405" lon="5.86864">
        <ele>677</ele>
        <time>2019-05-16T12:14:01Z</time>
      </trkpt>
      <trkpt lat="44.34394" lon="5.86866">
        <ele>678</ele>
        <time>2019-05-16T12:14:10Z</time>
      </trkpt>
      <trkpt lat="44.34386" lon="5.86865">
        <ele>678</ele>
        <time>2019-05-16T12:14:15Z</time>
      </trkpt>
      <trkpt lat="44.34377" lon="5.86861">
        <ele>679</ele>
        <time>2019-05-16T12:14:21Z</time>
      </trkpt>
      <trkpt lat="44.34376" lon="5.86859">
        <ele>679</ele>
        <time>2019-05-16T12:14:22Z</time>
      </trkpt>
      <trkpt lat="44.34375" lon="5.86858">
        <ele>680</ele>
        <time>2019-05-16T12:14:23Z</time>
      </trkpt>
      <trkpt lat="44.34374" lon="5.86857">
        <ele>680</ele>
        <time>2019-05-16T12:14:24Z</time>
      </trkpt>
      <trkpt lat="44.34373" lon="5.86857">
        <ele>680</ele>
        <time>2019-05-16T12:14:25Z</time>
      </trkpt>
      <trkpt lat="44.34371" lon="5.86856">
        <ele>680</ele>
        <time>2019-05-16T12:14:26Z</time>
      </trkpt>
      <trkpt lat="44.34369" lon="5.86855">
        <ele>680</ele>
        <time>2019-05-16T12:14:28Z</time>
      </trkpt>
      <trkpt lat="44.34364" lon="5.86853">
        <ele>681</ele>
        <time>2019-05-16T12:14:31Z</time>
      </trkpt>
      <trkpt lat="44.34351" lon="5.86847">
        <ele>682</ele>
        <time>2019-05-16T12:14:40Z</time>
      </trkpt>
      <trkpt lat="44.34345" lon="5.86845">
        <ele>683</ele>
        <time>2019-05-16T12:14:45Z</time>
      </trkpt>
      <trkpt lat="44.34343" lon="5.86844">
        <ele>683</ele>
        <time>2019-05-16T12:14:46Z</time>
      </trkpt>
      <trkpt lat="44.34342" lon="5.86844">
        <ele>683</ele>
        <time>2019-05-16T12:14:47Z</time>
      </trkpt>
      <trkpt lat="44.34339" lon="5.86844">
        <ele>683</ele>
        <time>2019-05-16T12:14:49Z</time>
      </trkpt>
      <trkpt lat="44.34337" lon="5.86843">
        <ele>683</ele>
        <time>2019-05-16T12:14:50Z</time>
      </trkpt>
      <trkpt lat="44.34334" lon="5.86842">
        <ele>683</ele>
        <time>2019-05-16T12:14:52Z</time>
      </trkpt>
      <trkpt lat="44.34332" lon="5.86841">
        <ele>683</ele>
        <time>2019-05-16T12:14:53Z</time>
      </trkpt>
      <trkpt lat="44.3432" lon="5.86844">
        <ele>685</ele>
        <time>2019-05-16T12:15:04Z</time>
      </trkpt>
      <trkpt lat="44.34316" lon="5.86847">
        <ele>685</ele>
        <time>2019-05-16T12:15:07Z</time>
      </trkpt>
      <trkpt lat="44.34315" lon="5.86848">
        <ele>685</ele>
        <time>2019-05-16T12:15:08Z</time>
      </trkpt>
      <trkpt lat="44.34315" lon="5.86849">
        <ele>685</ele>
        <time>2019-05-16T12:15:09Z</time>
      </trkpt>
      <trkpt lat="44.34314" lon="5.8685">
        <ele>685</ele>
        <time>2019-05-16T12:15:10Z</time>
      </trkpt>
      <trkpt lat="44.34312" lon="5.86854">
        <ele>686</ele>
        <time>2019-05-16T12:15:13Z</time>
      </trkpt>
      <trkpt lat="44.34312" lon="5.86855">
        <ele>686</ele>
        <time>2019-05-16T12:15:14Z</time>
      </trkpt>
      <trkpt lat="44.34313" lon="5.86858">
        <ele>686</ele>
        <time>2019-05-16T12:15:16Z</time>
      </trkpt>
      <trkpt lat="44.34315" lon="5.86862">
        <ele>687</ele>
        <time>2019-05-16T12:15:19Z</time>
      </trkpt>
      <trkpt lat="44.34316" lon="5.86863">
        <ele>687</ele>
        <time>2019-05-16T12:15:20Z</time>
      </trkpt>
      <trkpt lat="44.34332" lon="5.86883">
        <ele>689</ele>
        <time>2019-05-16T12:15:35Z</time>
      </trkpt>
      <trkpt lat="44.34334" lon="5.86886">
        <ele>689</ele>
        <time>2019-05-16T12:15:37Z</time>
      </trkpt>
      <trkpt lat="44.34336" lon="5.86887">
        <ele>689</ele>
        <time>2019-05-16T12:15:38Z</time>
      </trkpt>
      <trkpt lat="44.34337" lon="5.86889">
        <ele>689</ele>
        <time>2019-05-16T12:15:39Z</time>
      </trkpt>
      <trkpt lat="44.34339" lon="5.8689">
        <ele>689</ele>
        <time>2019-05-16T12:15:40Z</time>
      </trkpt>
      <trkpt lat="44.3434" lon="5.86892">
        <ele>689</ele>
        <time>2019-05-16T12:15:41Z</time>
      </trkpt>
      <trkpt lat="44.34344" lon="5.86896">
        <ele>689</ele>
        <time>2019-05-16T12:15:44Z</time>
      </trkpt>
      <trkpt lat="44.34346" lon="5.86898">
        <ele>689</ele>
        <time>2019-05-16T12:15:45Z</time>
      </trkpt>
      <trkpt lat="44.34346" lon="5.86899">
        <ele>689</ele>
        <time>2019-05-16T12:15:46Z</time>
      </trkpt>
      <trkpt lat="44.34347" lon="5.869">
        <ele>689</ele>
        <time>2019-05-16T12:15:47Z</time>
      </trkpt>
      <trkpt lat="44.34348" lon="5.86902">
        <ele>689</ele>
        <time>2019-05-16T12:15:48Z</time>
      </trkpt>
      <trkpt lat="44.34349" lon="5.86903">
        <ele>689</ele>
        <time>2019-05-16T12:15:49Z</time>
      </trkpt>
      <trkpt lat="44.34351" lon="5.86904">
        <ele>690</ele>
        <time>2019-05-16T12:15:50Z</time>
      </trkpt>
      <trkpt lat="44.34364" lon="5.86913">
        <ele>691</ele>
        <time>2019-05-16T12:16:01Z</time>
      </trkpt>
      <trkpt lat="44.34374" lon="5.86918">
        <ele>692</ele>
        <time>2019-05-16T12:16:09Z</time>
      </trkpt>
      <trkpt lat="44.34384" lon="5.8692">
        <ele>692</ele>
        <time>2019-05-16T12:16:16Z</time>
      </trkpt>
      <trkpt lat="44.34385" lon="5.8692">
        <ele>692</ele>
        <time>2019-05-16T12:16:17Z</time>
      </trkpt>
      <trkpt lat="44.34387" lon="5.8692">
        <ele>693</ele>
        <time>2019-05-16T12:16:18Z</time>
      </trkpt>
      <trkpt lat="44.34388" lon="5.8692">
        <ele>693</ele>
        <time>2019-05-16T12:16:19Z</time>
      </trkpt>
      <trkpt lat="44.34389" lon="5.86919">
        <ele>693</ele>
        <time>2019-05-16T12:16:20Z</time>
      </trkpt>
      <trkpt lat="44.34404" lon="5.86921">
        <ele>694</ele>
        <time>2019-05-16T12:16:29Z</time>
      </trkpt>
      <trkpt lat="44.34405" lon="5.86921">
        <ele>694</ele>
        <time>2019-05-16T12:16:30Z</time>
      </trkpt>
      <trkpt lat="44.34415" lon="5.86924">
        <ele>695</ele>
        <time>2019-05-16T12:16:37Z</time>
      </trkpt>
      <trkpt lat="44.34416" lon="5.86924">
        <ele>695</ele>
        <time>2019-05-16T12:16:38Z</time>
      </trkpt>
      <trkpt lat="44.34431" lon="5.86943">
        <ele>697</ele>
        <time>2019-05-16T12:16:54Z</time>
      </trkpt>
      <trkpt lat="44.34434" lon="5.86951">
        <ele>697</ele>
        <time>2019-05-16T12:16:57Z</time>
      </trkpt>
      <trkpt lat="44.34437" lon="5.86957">
        <ele>697</ele>
        <time>2019-05-16T12:17:01Z</time>
      </trkpt>
      <trkpt lat="44.34441" lon="5.86964">
        <ele>698</ele>
        <time>2019-05-16T12:17:06Z</time>
      </trkpt>
      <trkpt lat="44.34442" lon="5.86966">
        <ele>698</ele>
        <time>2019-05-16T12:17:08Z</time>
      </trkpt>
      <trkpt lat="44.34443" lon="5.86977">
        <ele>699</ele>
        <time>2019-05-16T12:17:13Z</time>
      </trkpt>
      <trkpt lat="44.34444" lon="5.86982">
        <ele>699</ele>
        <time>2019-05-16T12:17:15Z</time>
      </trkpt>
      <trkpt lat="44.34445" lon="5.86984">
        <ele>699</ele>
        <time>2019-05-16T12:17:16Z</time>
      </trkpt>
      <trkpt lat="44.34451" lon="5.87003">
        <ele>700</ele>
        <time>2019-05-16T12:17:24Z</time>
      </trkpt>
      <trkpt lat="44.34452" lon="5.87017">
        <ele>701</ele>
        <time>2019-05-16T12:17:31Z</time>
      </trkpt>
      <trkpt lat="44.34452" lon="5.8702">
        <ele>701</ele>
        <time>2019-05-16T12:17:32Z</time>
      </trkpt>
      <trkpt lat="44.34452" lon="5.87033">
        <ele>702</ele>
        <time>2019-05-16T12:17:36Z</time>
      </trkpt>
      <trkpt lat="44.3445" lon="5.87049">
        <ele>702</ele>
        <time>2019-05-16T12:17:41Z</time>
      </trkpt>
      <trkpt lat="44.34449" lon="5.87053">
        <ele>702</ele>
        <time>2019-05-16T12:17:42Z</time>
      </trkpt>
      <trkpt lat="44.34436" lon="5.87138">
        <ele>702</ele>
        <time>2019-05-16T12:18:01Z</time>
      </trkpt>
      <trkpt lat="44.34431" lon="5.8721">
        <ele>702</ele>
        <time>2019-05-16T12:18:18Z</time>
      </trkpt>
      <trkpt lat="44.34409" lon="5.8725">
        <ele>702</ele>
        <time>2019-05-16T12:18:32Z</time>
      </trkpt>
      <trkpt lat="44.34407" lon="5.87251">
        <ele>702</ele>
        <time>2019-05-16T12:18:33Z</time>
      </trkpt>
      <trkpt lat="44.34337" lon="5.87274">
        <ele>701</ele>
        <time>2019-05-16T12:18:46Z</time>
      </trkpt>
      <trkpt lat="44.34303" lon="5.87284">
        <ele>700</ele>
        <time>2019-05-16T12:18:51Z</time>
      </trkpt>
      <trkpt lat="44.34271" lon="5.873">
        <ele>698</ele>
        <time>2019-05-16T12:18:56Z</time>
      </trkpt>
      <trkpt lat="44.34198" lon="5.8734">
        <ele>694</ele>
        <time>2019-05-16T12:19:10Z</time>
      </trkpt>
      <trkpt lat="44.34159" lon="5.87351">
        <ele>694</ele>
        <time>2019-05-16T12:19:22Z</time>
      </trkpt>
      <trkpt lat="44.34157" lon="5.8735">
        <ele>691</ele>
        <time>2019-05-16T12:19:31Z</time>
      </trkpt>
      <trkpt lat="44.34151" lon="5.87345">
        <ele>691</ele>
        <time>2019-05-16T12:20:46Z</time>
      </trkpt>
      <trkpt lat="44.34143" lon="5.87341">
        <ele>691</ele>
        <time>2019-05-16T12:20:48Z</time>
      </trkpt>
      <trkpt lat="44.34139" lon="5.87339">
        <ele>691</ele>
        <time>2019-05-16T12:20:49Z</time>
      </trkpt>
      <trkpt lat="44.34073" lon="5.87309">
        <ele>690</ele>
        <time>2019-05-16T12:21:04Z</time>
      </trkpt>
      <trkpt lat="44.34059" lon="5.87306">
        <ele>689</ele>
        <time>2019-05-16T12:21:07Z</time>
      </trkpt>
      <trkpt lat="44.33993" lon="5.87315">
        <ele>688</ele>
        <time>2019-05-16T12:21:19Z</time>
      </trkpt>
      <trkpt lat="44.33981" lon="5.87313">
        <ele>687</ele>
        <time>2019-05-16T12:21:21Z</time>
      </trkpt>
      <trkpt lat="44.33953" lon="5.87307">
        <ele>686</ele>
        <time>2019-05-16T12:21:25Z</time>
      </trkpt>
      <trkpt lat="44.33946" lon="5.87304">
        <ele>686</ele>
        <time>2019-05-16T12:21:26Z</time>
      </trkpt>
      <trkpt lat="44.33866" lon="5.87262">
        <ele>683</ele>
        <time>2019-05-16T12:21:39Z</time>
      </trkpt>
      <trkpt lat="44.33802" lon="5.87246">
        <ele>680</ele>
        <time>2019-05-16T12:21:49Z</time>
      </trkpt>
      <trkpt lat="44.33793" lon="5.8725">
        <ele>680</ele>
        <time>2019-05-16T12:21:50Z</time>
      </trkpt>
      <trkpt lat="44.33785" lon="5.87253">
        <ele>680</ele>
        <time>2019-05-16T12:21:51Z</time>
      </trkpt>
      <trkpt lat="44.33722" lon="5.87272">
        <ele>677</ele>
        <time>2019-05-16T12:22:01Z</time>
      </trkpt>
      <trkpt lat="44.33681" lon="5.87268">
        <ele>675</ele>
        <time>2019-05-16T12:22:10Z</time>
      </trkpt>
      <trkpt lat="44.33678" lon="5.87267">
        <ele>673</ele>
        <time>2019-05-16T12:22:14Z</time>
      </trkpt>
      <trkpt lat="44.33663" lon="5.87265">
        <ele>672</ele>
        <time>2019-05-16T12:23:40Z</time>
      </trkpt>
      <trkpt lat="44.33646" lon="5.87241">
        <ele>672</ele>
        <time>2019-05-16T12:23:46Z</time>
      </trkpt>
      <trkpt lat="44.3361" lon="5.87177">
        <ele>672</ele>
        <time>2019-05-16T12:23:58Z</time>
      </trkpt>
      <trkpt lat="44.3361" lon="5.87167">
        <ele>669</ele>
        <time>2019-05-16T12:24:09Z</time>
      </trkpt>
      <trkpt lat="44.3361" lon="5.87167">
        <ele>669</ele>
        <time>2019-05-16T12:24:11Z</time>
      </trkpt>
      <trkpt lat="44.33603" lon="5.87161">
        <ele>669</ele>
        <time>2019-05-16T12:24:17Z</time>
      </trkpt>
      <trkpt lat="44.33599" lon="5.87157">
        <ele>669</ele>
        <time>2019-05-16T12:24:19Z</time>
      </trkpt>
      <trkpt lat="44.33597" lon="5.87154">
        <ele>669</ele>
        <time>2019-05-16T12:24:20Z</time>
      </trkpt>
      <trkpt lat="44.33594" lon="5.87151">
        <ele>669</ele>
        <time>2019-05-16T12:24:21Z</time>
      </trkpt>
      <trkpt lat="44.33565" lon="5.8711">
        <ele>669</ele>
        <time>2019-05-16T12:24:31Z</time>
      </trkpt>
      <trkpt lat="44.33564" lon="5.87105">
        <ele>669</ele>
        <time>2019-05-16T12:24:32Z</time>
      </trkpt>
      <trkpt lat="44.33562" lon="5.87101">
        <ele>668</ele>
        <time>2019-05-16T12:24:33Z</time>
      </trkpt>
      <trkpt lat="44.33561" lon="5.87097">
        <ele>668</ele>
        <time>2019-05-16T12:24:34Z</time>
      </trkpt>
      <trkpt lat="44.33561" lon="5.87092">
        <ele>668</ele>
        <time>2019-05-16T12:24:35Z</time>
      </trkpt>
      <trkpt lat="44.33563" lon="5.87088">
        <ele>668</ele>
        <time>2019-05-16T12:24:36Z</time>
      </trkpt>
      <trkpt lat="44.33565" lon="5.87083">
        <ele>668</ele>
        <time>2019-05-16T12:24:37Z</time>
      </trkpt>
      <trkpt lat="44.3357" lon="5.87079">
        <ele>668</ele>
        <time>2019-05-16T12:24:38Z</time>
      </trkpt>
      <trkpt lat="44.33573" lon="5.87074">
        <ele>668</ele>
        <time>2019-05-16T12:24:39Z</time>
      </trkpt>
      <trkpt lat="44.33577" lon="5.87071">
        <ele>668</ele>
        <time>2019-05-16T12:24:40Z</time>
      </trkpt>
      <trkpt lat="44.33611" lon="5.87002">
        <ele>668</ele>
        <time>2019-05-16T12:24:55Z</time>
      </trkpt>
      <trkpt lat="44.33597" lon="5.86952">
        <ele>670</ele>
        <time>2019-05-16T12:25:09Z</time>
      </trkpt>
      <trkpt lat="44.33561" lon="5.8687">
        <ele>669</ele>
        <time>2019-05-16T12:25:20Z</time>
      </trkpt>
      <trkpt lat="44.33494" lon="5.86797">
        <ele>666</ele>
        <time>2019-05-16T12:25:37Z</time>
      </trkpt>
      <trkpt lat="44.33465" lon="5.86763">
        <ele>667</ele>
        <time>2019-05-16T12:25:52Z</time>
      </trkpt>
      <trkpt lat="44.33437" lon="5.86724">
        <ele>669</ele>
        <time>2019-05-16T12:26:08Z</time>
      </trkpt>
      <trkpt lat="44.33426" lon="5.86717">
        <ele>669</ele>
        <time>2019-05-16T12:26:13Z</time>
      </trkpt>
      <trkpt lat="44.33377" lon="5.86668">
        <ele>672</ele>
        <time>2019-05-16T12:26:40Z</time>
      </trkpt>
      <trkpt lat="44.33375" lon="5.86665">
        <ele>672</ele>
        <time>2019-05-16T12:26:41Z</time>
      </trkpt>
      <trkpt lat="44.33326" lon="5.86622">
        <ele>674</ele>
        <time>2019-05-16T12:27:00Z</time>
      </trkpt>
      <trkpt lat="44.33275" lon="5.86584">
        <ele>670</ele>
        <time>2019-05-16T12:27:14Z</time>
      </trkpt>
      <trkpt lat="44.33251" lon="5.86563">
        <ele>668</ele>
        <time>2019-05-16T12:27:20Z</time>
      </trkpt>
      <trkpt lat="44.33214" lon="5.86524">
        <ele>665</ele>
        <time>2019-05-16T12:27:27Z</time>
      </trkpt>
      <trkpt lat="44.33184" lon="5.86494">
        <ele>661</ele>
        <time>2019-05-16T12:27:31Z</time>
      </trkpt>
      <trkpt lat="44.33178" lon="5.86487">
        <ele>661</ele>
        <time>2019-05-16T12:27:32Z</time>
      </trkpt>
      <trkpt lat="44.33148" lon="5.86451">
        <ele>658</ele>
        <time>2019-05-16T12:27:37Z</time>
      </trkpt>
      <trkpt lat="44.33122" lon="5.86411">
        <ele>656</ele>
        <time>2019-05-16T12:27:42Z</time>
      </trkpt>
      <trkpt lat="44.3309" lon="5.86311">
        <ele>653</ele>
        <time>2019-05-16T12:27:55Z</time>
      </trkpt>
      <trkpt lat="44.33071" lon="5.86241">
        <ele>652</ele>
        <time>2019-05-16T12:28:05Z</time>
      </trkpt>
      <trkpt lat="44.33068" lon="5.86236">
        <ele>651</ele>
        <time>2019-05-16T12:28:06Z</time>
      </trkpt>
      <trkpt lat="44.33065" lon="5.86231">
        <ele>651</ele>
        <time>2019-05-16T12:28:07Z</time>
      </trkpt>
      <trkpt lat="44.33061" lon="5.86226">
        <ele>651</ele>
        <time>2019-05-16T12:28:08Z</time>
      </trkpt>
      <trkpt lat="44.33057" lon="5.86222">
        <ele>651</ele>
        <time>2019-05-16T12:28:09Z</time>
      </trkpt>
      <trkpt lat="44.33031" lon="5.86205">
        <ele>649</ele>
        <time>2019-05-16T12:28:19Z</time>
      </trkpt>
      <trkpt lat="44.32966" lon="5.86198">
        <ele>647</ele>
        <time>2019-05-16T12:28:35Z</time>
      </trkpt>
      <trkpt lat="44.32935" lon="5.86196">
        <ele>646</ele>
        <time>2019-05-16T12:28:46Z</time>
      </trkpt>
      <trkpt lat="44.32912" lon="5.86222">
        <ele>645</ele>
        <time>2019-05-16T12:28:56Z</time>
      </trkpt>
      <trkpt lat="44.32878" lon="5.86282">
        <ele>645</ele>
        <time>2019-05-16T12:29:12Z</time>
      </trkpt>
      <trkpt lat="44.32849" lon="5.86351">
        <ele>646</ele>
        <time>2019-05-16T12:29:30Z</time>
      </trkpt>
      <trkpt lat="44.32845" lon="5.86422">
        <ele>645</ele>
        <time>2019-05-16T12:29:45Z</time>
      </trkpt>
      <trkpt lat="44.32811" lon="5.86479">
        <ele>645</ele>
        <time>2019-05-16T12:29:59Z</time>
      </trkpt>
      <trkpt lat="44.3277" lon="5.86524">
        <ele>645</ele>
        <time>2019-05-16T12:30:15Z</time>
      </trkpt>
      <trkpt lat="44.32756" lon="5.86572">
        <ele>645</ele>
        <time>2019-05-16T12:30:29Z</time>
      </trkpt>
      <trkpt lat="44.32752" lon="5.86639">
        <ele>645</ele>
        <time>2019-05-16T12:30:45Z</time>
      </trkpt>
      <trkpt lat="44.32758" lon="5.86717">
        <ele>645</ele>
        <time>2019-05-16T12:31:03Z</time>
      </trkpt>
      <trkpt lat="44.32758" lon="5.86798">
        <ele>645</ele>
        <time>2019-05-16T12:31:21Z</time>
      </trkpt>
      <trkpt lat="44.32741" lon="5.86866">
        <ele>646</ele>
        <time>2019-05-16T12:31:38Z</time>
      </trkpt>
      <trkpt lat="44.3272" lon="5.86938">
        <ele>647</ele>
        <time>2019-05-16T12:31:57Z</time>
      </trkpt>
      <trkpt lat="44.32707" lon="5.87008">
        <ele>647</ele>
        <time>2019-05-16T12:32:15Z</time>
      </trkpt>
      <trkpt lat="44.32696" lon="5.87072">
        <ele>648</ele>
        <time>2019-05-16T12:32:32Z</time>
      </trkpt>
      <trkpt lat="44.32675" lon="5.87126">
        <ele>649</ele>
        <time>2019-05-16T12:32:49Z</time>
      </trkpt>
      <trkpt lat="44.32641" lon="5.87144">
        <ele>651</ele>
        <time>2019-05-16T12:33:04Z</time>
      </trkpt>
      <trkpt lat="44.32596" lon="5.87149">
        <ele>651</ele>
        <time>2019-05-16T12:33:20Z</time>
      </trkpt>
      <trkpt lat="44.32562" lon="5.87158">
        <ele>651</ele>
        <time>2019-05-16T12:33:35Z</time>
      </trkpt>
      <trkpt lat="44.32523" lon="5.87181">
        <ele>652</ele>
        <time>2019-05-16T12:33:51Z</time>
      </trkpt>
      <trkpt lat="44.3249" lon="5.87203">
        <ele>653</ele>
        <time>2019-05-16T12:34:08Z</time>
      </trkpt>
      <trkpt lat="44.32465" lon="5.87231">
        <ele>654</ele>
        <time>2019-05-16T12:34:22Z</time>
      </trkpt>
      <trkpt lat="44.32455" lon="5.87274">
        <ele>655</ele>
        <time>2019-05-16T12:34:37Z</time>
      </trkpt>
      <trkpt lat="44.32448" lon="5.87334">
        <ele>656</ele>
        <time>2019-05-16T12:34:54Z</time>
      </trkpt>
      <trkpt lat="44.32436" lon="5.87412">
        <ele>656</ele>
        <time>2019-05-16T12:35:14Z</time>
      </trkpt>
      <trkpt lat="44.32448" lon="5.87465">
        <ele>657</ele>
        <time>2019-05-16T12:35:29Z</time>
      </trkpt>
      <trkpt lat="44.32477" lon="5.87519">
        <ele>657</ele>
        <time>2019-05-16T12:35:46Z</time>
      </trkpt>
      <trkpt lat="44.32514" lon="5.87578">
        <ele>657</ele>
        <time>2019-05-16T12:36:03Z</time>
      </trkpt>
      <trkpt lat="44.32522" lon="5.87625">
        <ele>657</ele>
        <time>2019-05-16T12:36:15Z</time>
      </trkpt>
      <trkpt lat="44.32518" lon="5.87684">
        <ele>658</ele>
        <time>2019-05-16T12:36:31Z</time>
      </trkpt>
      <trkpt lat="44.32516" lon="5.87741">
        <ele>659</ele>
        <time>2019-05-16T12:36:47Z</time>
      </trkpt>
      <trkpt lat="44.32511" lon="5.87788">
        <ele>661</ele>
        <time>2019-05-16T12:37:01Z</time>
      </trkpt>
      <trkpt lat="44.32508" lon="5.87835">
        <ele>662</ele>
        <time>2019-05-16T12:37:15Z</time>
      </trkpt>
      <trkpt lat="44.32507" lon="5.87878">
        <ele>663</ele>
        <time>2019-05-16T12:37:31Z</time>
      </trkpt>
      <trkpt lat="44.32507" lon="5.87884">
        <ele>663</ele>
        <time>2019-05-16T12:37:33Z</time>
      </trkpt>
      <trkpt lat="44.32509" lon="5.87902">
        <ele>664</ele>
        <time>2019-05-16T12:37:39Z</time>
      </trkpt>
      <trkpt lat="44.32509" lon="5.87905">
        <ele>664</ele>
        <time>2019-05-16T12:37:40Z</time>
      </trkpt>
      <trkpt lat="44.32509" lon="5.87909">
        <ele>665</ele>
        <time>2019-05-16T12:37:41Z</time>
      </trkpt>
      <trkpt lat="44.32494" lon="5.87969">
        <ele>666</ele>
        <time>2019-05-16T12:37:58Z</time>
      </trkpt>
      <trkpt lat="44.32472" lon="5.88016">
        <ele>666</ele>
        <time>2019-05-16T12:38:14Z</time>
      </trkpt>
      <trkpt lat="44.3244" lon="5.88058">
        <ele>668</ele>
        <time>2019-05-16T12:38:32Z</time>
      </trkpt>
      <trkpt lat="44.3242" lon="5.88096">
        <ele>668</ele>
        <time>2019-05-16T12:38:46Z</time>
      </trkpt>
      <trkpt lat="44.32406" lon="5.88149">
        <ele>670</ele>
        <time>2019-05-16T12:39:04Z</time>
      </trkpt>
      <trkpt lat="44.32393" lon="5.88197">
        <ele>671</ele>
        <time>2019-05-16T12:39:21Z</time>
      </trkpt>
      <trkpt lat="44.32374" lon="5.88249">
        <ele>672</ele>
        <time>2019-05-16T12:44:55Z</time>
      </trkpt>
      <trkpt lat="44.32373" lon="5.88252">
        <ele>672</ele>
        <time>2019-05-16T12:44:56Z</time>
      </trkpt>
      <trkpt lat="44.32351" lon="5.88312">
        <ele>672</ele>
        <time>2019-05-16T12:45:10Z</time>
      </trkpt>
      <trkpt lat="44.32346" lon="5.88322">
        <ele>672</ele>
        <time>2019-05-16T12:45:12Z</time>
      </trkpt>
      <trkpt lat="44.32329" lon="5.88385">
        <ele>670</ele>
        <time>2019-05-16T12:45:26Z</time>
      </trkpt>
      <trkpt lat="44.32323" lon="5.884">
        <ele>670</ele>
        <time>2019-05-16T12:45:29Z</time>
      </trkpt>
      <trkpt lat="44.3232" lon="5.88404">
        <ele>670</ele>
        <time>2019-05-16T12:45:30Z</time>
      </trkpt>
      <trkpt lat="44.32317" lon="5.88408">
        <ele>670</ele>
        <time>2019-05-16T12:45:31Z</time>
      </trkpt>
      <trkpt lat="44.32313" lon="5.88412">
        <ele>670</ele>
        <time>2019-05-16T12:45:32Z</time>
      </trkpt>
      <trkpt lat="44.32309" lon="5.88415">
        <ele>670</ele>
        <time>2019-05-16T12:45:33Z</time>
      </trkpt>
      <trkpt lat="44.32304" lon="5.88417">
        <ele>670</ele>
        <time>2019-05-16T12:45:34Z</time>
      </trkpt>
      <trkpt lat="44.32299" lon="5.88419">
        <ele>669</ele>
        <time>2019-05-16T12:45:35Z</time>
      </trkpt>
      <trkpt lat="44.32294" lon="5.88421">
        <ele>669</ele>
        <time>2019-05-16T12:45:36Z</time>
      </trkpt>
      <trkpt lat="44.32218" lon="5.88444">
        <ele>667</ele>
        <time>2019-05-16T12:45:51Z</time>
      </trkpt>
      <trkpt lat="44.32158" lon="5.88493">
        <ele>665</ele>
        <time>2019-05-16T12:46:04Z</time>
      </trkpt>
      <trkpt lat="44.32077" lon="5.88541">
        <ele>663</ele>
        <time>2019-05-16T12:46:17Z</time>
      </trkpt>
      <trkpt lat="44.32021" lon="5.8857">
        <ele>662</ele>
        <time>2019-05-16T12:46:26Z</time>
      </trkpt>
      <trkpt lat="44.32014" lon="5.88571">
        <ele>662</ele>
        <time>2019-05-16T12:46:27Z</time>
      </trkpt>
      <trkpt lat="44.32005" lon="5.88571">
        <ele>661</ele>
        <time>2019-05-16T12:46:28Z</time>
      </trkpt>
      <trkpt lat="44.3193" lon="5.88574">
        <ele>658</ele>
        <time>2019-05-16T12:46:38Z</time>
      </trkpt>
      <trkpt lat="44.31884" lon="5.88585">
        <ele>657</ele>
        <time>2019-05-16T12:46:45Z</time>
      </trkpt>
      <trkpt lat="44.31878" lon="5.88589">
        <ele>656</ele>
        <time>2019-05-16T12:46:46Z</time>
      </trkpt>
      <trkpt lat="44.31808" lon="5.88619">
        <ele>654</ele>
        <time>2019-05-16T12:46:58Z</time>
      </trkpt>
      <trkpt lat="44.31743" lon="5.88647">
        <ele>651</ele>
        <time>2019-05-16T12:47:06Z</time>
      </trkpt>
      <trkpt lat="44.31735" lon="5.88648">
        <ele>651</ele>
        <time>2019-05-16T12:47:07Z</time>
      </trkpt>
      <trkpt lat="44.31689" lon="5.88648">
        <ele>648</ele>
        <time>2019-05-16T12:47:14Z</time>
      </trkpt>
      <trkpt lat="44.31683" lon="5.88648">
        <ele>647</ele>
        <time>2019-05-16T12:47:15Z</time>
      </trkpt>
      <trkpt lat="44.31677" lon="5.88649">
        <ele>647</ele>
        <time>2019-05-16T12:47:16Z</time>
      </trkpt>
      <trkpt lat="44.31671" lon="5.88649">
        <ele>646</ele>
        <time>2019-05-16T12:47:17Z</time>
      </trkpt>
      <trkpt lat="44.31666" lon="5.8865">
        <ele>645</ele>
        <time>2019-05-16T12:47:18Z</time>
      </trkpt>
      <trkpt lat="44.31661" lon="5.88654">
        <ele>645</ele>
        <time>2019-05-16T12:47:19Z</time>
      </trkpt>
      <trkpt lat="44.31657" lon="5.88659">
        <ele>644</ele>
        <time>2019-05-16T12:47:20Z</time>
      </trkpt>
      <trkpt lat="44.31654" lon="5.88658">
        <ele>644</ele>
        <time>2019-05-16T12:47:21Z</time>
      </trkpt>
      <trkpt lat="44.31654" lon="5.8866">
        <ele>643</ele>
        <time>2019-05-16T12:47:22Z</time>
      </trkpt>
      <trkpt lat="44.31652" lon="5.88667">
        <ele>642</ele>
        <time>2019-05-16T12:47:23Z</time>
      </trkpt>
      <trkpt lat="44.31649" lon="5.88676">
        <ele>641</ele>
        <time>2019-05-16T12:47:24Z</time>
      </trkpt>
      <trkpt lat="44.31648" lon="5.88685">
        <ele>640</ele>
        <time>2019-05-16T12:47:25Z</time>
      </trkpt>
      <trkpt lat="44.31646" lon="5.88695">
        <ele>640</ele>
        <time>2019-05-16T12:47:26Z</time>
      </trkpt>
      <trkpt lat="44.31646" lon="5.88704">
        <ele>640</ele>
        <time>2019-05-16T12:47:27Z</time>
      </trkpt>
      <trkpt lat="44.31624" lon="5.88812">
        <ele>636</ele>
        <time>2019-05-16T12:47:40Z</time>
      </trkpt>
      <trkpt lat="44.31589" lon="5.88904">
        <ele>633</ele>
        <time>2019-05-16T12:47:49Z</time>
      </trkpt>
      <trkpt lat="44.31556" lon="5.88988">
        <ele>630</ele>
        <time>2019-05-16T12:47:57Z</time>
      </trkpt>
      <trkpt lat="44.3154" lon="5.89032">
        <ele>627</ele>
        <time>2019-05-16T12:48:03Z</time>
      </trkpt>
      <trkpt lat="44.31529" lon="5.89058">
        <ele>623</ele>
        <time>2019-05-16T12:48:09Z</time>
      </trkpt>
      <trkpt lat="44.31525" lon="5.89078">
        <ele>621</ele>
        <time>2019-05-16T12:48:14Z</time>
      </trkpt>
      <trkpt lat="44.31526" lon="5.89083">
        <ele>620</ele>
        <time>2019-05-16T12:48:17Z</time>
      </trkpt>
      <trkpt lat="44.31527" lon="5.89085">
        <ele>620</ele>
        <time>2019-05-16T12:48:19Z</time>
      </trkpt>
      <trkpt lat="44.31528" lon="5.89085">
        <ele>620</ele>
        <time>2019-05-16T12:48:20Z</time>
      </trkpt>
      <trkpt lat="44.31539" lon="5.89085">
        <ele>620</ele>
        <time>2019-05-16T12:48:25Z</time>
      </trkpt>
      <trkpt lat="44.31591" lon="5.89085">
        <ele>619</ele>
        <time>2019-05-16T12:48:39Z</time>
      </trkpt>
      <trkpt lat="44.31698" lon="5.89082">
        <ele>617</ele>
        <time>2019-05-16T12:48:57Z</time>
      </trkpt>
      <trkpt lat="44.31785" lon="5.89044">
        <ele>614</ele>
        <time>2019-05-16T12:49:12Z</time>
      </trkpt>
      <trkpt lat="44.31844" lon="5.89001">
        <ele>612</ele>
        <time>2019-05-16T12:49:27Z</time>
      </trkpt>
      <trkpt lat="44.31847" lon="5.88995">
        <ele>610</ele>
        <time>2019-05-16T12:49:38Z</time>
      </trkpt>
      <trkpt lat="44.3186" lon="5.88995">
        <ele>610</ele>
        <time>2019-05-16T12:49:49Z</time>
      </trkpt>
      <trkpt lat="44.31937" lon="5.88988">
        <ele>610</ele>
        <time>2019-05-16T12:50:03Z</time>
      </trkpt>
      <trkpt lat="44.31943" lon="5.88991">
        <ele>609</ele>
        <time>2019-05-16T12:50:04Z</time>
      </trkpt>
      <trkpt lat="44.32023" lon="5.89039">
        <ele>607</ele>
        <time>2019-05-16T12:50:19Z</time>
      </trkpt>
      <trkpt lat="44.32066" lon="5.8906">
        <ele>605</ele>
        <time>2019-05-16T12:50:31Z</time>
      </trkpt>
      <trkpt lat="44.32093" lon="5.89067">
        <ele>603</ele>
        <time>2019-05-16T12:50:42Z</time>
      </trkpt>
      <trkpt lat="44.32105" lon="5.89064">
        <ele>603</ele>
        <time>2019-05-16T12:52:58Z</time>
      </trkpt>
      <trkpt lat="44.32108" lon="5.89066">
        <ele>603</ele>
        <time>2019-05-16T12:52:59Z</time>
      </trkpt>
      <trkpt lat="44.32112" lon="5.89066">
        <ele>602</ele>
        <time>2019-05-16T12:53:00Z</time>
      </trkpt>
      <trkpt lat="44.32116" lon="5.89067">
        <ele>602</ele>
        <time>2019-05-16T12:53:01Z</time>
      </trkpt>
      <trkpt lat="44.32119" lon="5.89068">
        <ele>602</ele>
        <time>2019-05-16T12:53:02Z</time>
      </trkpt>
      <trkpt lat="44.32123" lon="5.89069">
        <ele>602</ele>
        <time>2019-05-16T12:53:03Z</time>
      </trkpt>
      <trkpt lat="44.32196" lon="5.8909">
        <ele>602</ele>
        <time>2019-05-16T12:53:21Z</time>
      </trkpt>
      <trkpt lat="44.32271" lon="5.89114">
        <ele>601</ele>
        <time>2019-05-16T12:53:38Z</time>
      </trkpt>
      <trkpt lat="44.32341" lon="5.89133">
        <ele>601</ele>
        <time>2019-05-16T12:53:53Z</time>
      </trkpt>
      <trkpt lat="44.32406" lon="5.89156">
        <ele>601</ele>
        <time>2019-05-16T12:54:08Z</time>
      </trkpt>
      <trkpt lat="44.32478" lon="5.89179">
        <ele>601</ele>
        <time>2019-05-16T12:54:24Z</time>
      </trkpt>
      <trkpt lat="44.32555" lon="5.89207">
        <ele>601</ele>
        <time>2019-05-16T12:54:43Z</time>
      </trkpt>
      <trkpt lat="44.32575" lon="5.89217">
        <ele>601</ele>
        <time>2019-05-16T12:54:48Z</time>
      </trkpt>
      <trkpt lat="44.32636" lon="5.8926">
        <ele>602</ele>
        <time>2019-05-16T12:55:05Z</time>
      </trkpt>
      <trkpt lat="44.32692" lon="5.89306">
        <ele>602</ele>
        <time>2019-05-16T12:55:19Z</time>
      </trkpt>
      <trkpt lat="44.32697" lon="5.8931">
        <ele>602</ele>
        <time>2019-05-16T12:55:20Z</time>
      </trkpt>
      <trkpt lat="44.32771" lon="5.8937">
        <ele>602</ele>
        <time>2019-05-16T12:55:38Z</time>
      </trkpt>
      <trkpt lat="44.32816" lon="5.89403">
        <ele>602</ele>
        <time>2019-05-16T12:55:50Z</time>
      </trkpt>
      <trkpt lat="44.3282" lon="5.89405">
        <ele>602</ele>
        <time>2019-05-16T12:55:51Z</time>
      </trkpt>
      <trkpt lat="44.32824" lon="5.89407">
        <ele>602</ele>
        <time>2019-05-16T12:55:52Z</time>
      </trkpt>
      <trkpt lat="44.32895" lon="5.89459">
        <ele>602</ele>
        <time>2019-05-16T12:56:11Z</time>
      </trkpt>
      <trkpt lat="44.32962" lon="5.89491">
        <ele>602</ele>
        <time>2019-05-16T12:56:28Z</time>
      </trkpt>
      <trkpt lat="44.33029" lon="5.89503">
        <ele>602</ele>
        <time>2019-05-16T12:56:44Z</time>
      </trkpt>
      <trkpt lat="44.33048" lon="5.89505">
        <ele>602</ele>
        <time>2019-05-16T12:56:48Z</time>
      </trkpt>
      <trkpt lat="44.33123" lon="5.89514">
        <ele>602</ele>
        <time>2019-05-16T12:57:06Z</time>
      </trkpt>
      <trkpt lat="44.3318" lon="5.8956">
        <ele>603</ele>
        <time>2019-05-16T12:57:22Z</time>
      </trkpt>
      <trkpt lat="44.33249" lon="5.89588">
        <ele>603</ele>
        <time>2019-05-16T12:57:40Z</time>
      </trkpt>
      <trkpt lat="44.33313" lon="5.89611">
        <ele>603</ele>
        <time>2019-05-16T12:57:56Z</time>
      </trkpt>
      <trkpt lat="44.33387" lon="5.89642">
        <ele>603</ele>
        <time>2019-05-16T12:58:13Z</time>
      </trkpt>
      <trkpt lat="44.33463" lon="5.89681">
        <ele>602</ele>
        <time>2019-05-16T12:58:30Z</time>
      </trkpt>
      <trkpt lat="44.33534" lon="5.89714">
        <ele>603</ele>
        <time>2019-05-16T12:58:47Z</time>
      </trkpt>
      <trkpt lat="44.33538" lon="5.89715">
        <ele>603</ele>
        <time>2019-05-16T12:58:48Z</time>
      </trkpt>
      <trkpt lat="44.33599" lon="5.89739">
        <ele>603</ele>
        <time>2019-05-16T12:59:04Z</time>
      </trkpt>
      <trkpt lat="44.33665" lon="5.89779">
        <ele>602</ele>
        <time>2019-05-16T12:59:20Z</time>
      </trkpt>
      <trkpt lat="44.33727" lon="5.89814">
        <ele>602</ele>
        <time>2019-05-16T12:59:34Z</time>
      </trkpt>
      <trkpt lat="44.33789" lon="5.89862">
        <ele>601</ele>
        <time>2019-05-16T12:59:47Z</time>
      </trkpt>
      <trkpt lat="44.3383" lon="5.89885">
        <ele>603</ele>
        <time>2019-05-16T13:00:03Z</time>
      </trkpt>
      <trkpt lat="44.33857" lon="5.89906">
        <ele>605</ele>
        <time>2019-05-16T13:00:17Z</time>
      </trkpt>
      <trkpt lat="44.33896" lon="5.89946">
        <ele>607</ele>
        <time>2019-05-16T13:00:35Z</time>
      </trkpt>
      <trkpt lat="44.3393" lon="5.89981">
        <ele>608</ele>
        <time>2019-05-16T13:00:51Z</time>
      </trkpt>
      <trkpt lat="44.33972" lon="5.90029">
        <ele>608</ele>
        <time>2019-05-16T13:01:04Z</time>
      </trkpt>
      <trkpt lat="44.34014" lon="5.9007">
        <ele>607</ele>
        <time>2019-05-16T13:01:18Z</time>
      </trkpt>
      <trkpt lat="44.34047" lon="5.901">
        <ele>608</ele>
        <time>2019-05-16T13:01:34Z</time>
      </trkpt>
      <trkpt lat="44.34076" lon="5.9013">
        <ele>610</ele>
        <time>2019-05-16T13:01:50Z</time>
      </trkpt>
      <trkpt lat="44.34104" lon="5.90153">
        <ele>612</ele>
        <time>2019-05-16T13:02:04Z</time>
      </trkpt>
      <trkpt lat="44.34138" lon="5.9019">
        <ele>614</ele>
        <time>2019-05-16T13:02:22Z</time>
      </trkpt>
      <trkpt lat="44.34169" lon="5.90226">
        <ele>614</ele>
        <time>2019-05-16T13:02:34Z</time>
      </trkpt>
      <trkpt lat="44.34224" lon="5.90296">
        <ele>612</ele>
        <time>2019-05-16T13:02:45Z</time>
      </trkpt>
      <trkpt lat="44.34294" lon="5.90379">
        <ele>609</ele>
        <time>2019-05-16T13:02:55Z</time>
      </trkpt>
      <trkpt lat="44.34345" lon="5.9043">
        <ele>606</ele>
        <time>2019-05-16T13:03:03Z</time>
      </trkpt>
      <trkpt lat="44.3438" lon="5.90451">
        <ele>604</ele>
        <time>2019-05-16T13:03:13Z</time>
      </trkpt>
      <trkpt lat="44.34408" lon="5.90481">
        <ele>605</ele>
        <time>2019-05-16T13:03:26Z</time>
      </trkpt>
      <trkpt lat="44.34417" lon="5.90495">
        <ele>606</ele>
        <time>2019-05-16T13:03:29Z</time>
      </trkpt>
      <trkpt lat="44.3442" lon="5.905">
        <ele>606</ele>
        <time>2019-05-16T13:03:30Z</time>
      </trkpt>
      <trkpt lat="44.34423" lon="5.90504">
        <ele>606</ele>
        <time>2019-05-16T13:03:31Z</time>
      </trkpt>
      <trkpt lat="44.34437" lon="5.90523">
        <ele>605</ele>
        <time>2019-05-16T13:03:40Z</time>
      </trkpt>
      <trkpt lat="44.34441" lon="5.90521">
        <ele>604</ele>
        <time>2019-05-16T13:03:46Z</time>
      </trkpt>
      <trkpt lat="44.34451" lon="5.9053">
        <ele>604</ele>
        <time>2019-05-16T13:05:16Z</time>
      </trkpt>
      <trkpt lat="44.34453" lon="5.90533">
        <ele>604</ele>
        <time>2019-05-16T13:05:17Z</time>
      </trkpt>
      <trkpt lat="44.34484" lon="5.90562">
        <ele>604</ele>
        <time>2019-05-16T13:05:29Z</time>
      </trkpt>
      <trkpt lat="44.34525" lon="5.90601">
        <ele>604</ele>
        <time>2019-05-16T13:05:42Z</time>
      </trkpt>
      <trkpt lat="44.34573" lon="5.90644">
        <ele>603</ele>
        <time>2019-05-16T13:05:56Z</time>
      </trkpt>
      <trkpt lat="44.34626" lon="5.90691">
        <ele>603</ele>
        <time>2019-05-16T13:06:10Z</time>
      </trkpt>
      <trkpt lat="44.34689" lon="5.90732">
        <ele>603</ele>
        <time>2019-05-16T13:06:20Z</time>
      </trkpt>
      <trkpt lat="44.34766" lon="5.90788">
        <ele>599</ele>
        <time>2019-05-16T13:06:31Z</time>
      </trkpt>
      <trkpt lat="44.3484" lon="5.90851">
        <ele>596</ele>
        <time>2019-05-16T13:06:43Z</time>
      </trkpt>
      <trkpt lat="44.3492" lon="5.90919">
        <ele>594</ele>
        <time>2019-05-16T13:06:58Z</time>
      </trkpt>
      <trkpt lat="44.34949" lon="5.90947">
        <ele>593</ele>
        <time>2019-05-16T13:07:04Z</time>
      </trkpt>
      <trkpt lat="44.34969" lon="5.90967">
        <ele>592</ele>
        <time>2019-05-16T13:07:09Z</time>
      </trkpt>
      <trkpt lat="44.34971" lon="5.90971">
        <ele>592</ele>
        <time>2019-05-16T13:07:10Z</time>
      </trkpt>
      <trkpt lat="44.35018" lon="5.91026">
        <ele>593</ele>
        <time>2019-05-16T13:07:26Z</time>
      </trkpt>
      <trkpt lat="44.35057" lon="5.91063">
        <ele>594</ele>
        <time>2019-05-16T13:07:41Z</time>
      </trkpt>
      <trkpt lat="44.35108" lon="5.91099">
        <ele>595</ele>
        <time>2019-05-16T13:08:02Z</time>
      </trkpt>
      <trkpt lat="44.35148" lon="5.91114">
        <ele>597</ele>
        <time>2019-05-16T13:08:19Z</time>
      </trkpt>
      <trkpt lat="44.35191" lon="5.91143">
        <ele>598</ele>
        <time>2019-05-16T13:08:38Z</time>
      </trkpt>
      <trkpt lat="44.35232" lon="5.91173">
        <ele>600</ele>
        <time>2019-05-16T13:08:55Z</time>
      </trkpt>
      <trkpt lat="44.35274" lon="5.91208">
        <ele>600</ele>
        <time>2019-05-16T13:09:12Z</time>
      </trkpt>
      <trkpt lat="44.35326" lon="5.91249">
        <ele>600</ele>
        <time>2019-05-16T13:09:30Z</time>
      </trkpt>
      <trkpt lat="44.35371" lon="5.91289">
        <ele>601</ele>
        <time>2019-05-16T13:09:47Z</time>
      </trkpt>
      <trkpt lat="44.35425" lon="5.91328">
        <ele>602</ele>
        <time>2019-05-16T13:10:03Z</time>
      </trkpt>
      <trkpt lat="44.35477" lon="5.91364">
        <ele>602</ele>
        <time>2019-05-16T13:10:18Z</time>
      </trkpt>
      <trkpt lat="44.3554" lon="5.91404">
        <ele>603</ele>
        <time>2019-05-16T13:10:37Z</time>
      </trkpt>
      <trkpt lat="44.3561" lon="5.91452">
        <ele>602</ele>
        <time>2019-05-16T13:10:53Z</time>
      </trkpt>
      <trkpt lat="44.35687" lon="5.91501">
        <ele>601</ele>
        <time>2019-05-16T13:11:08Z</time>
      </trkpt>
      <trkpt lat="44.35752" lon="5.9155">
        <ele>600</ele>
        <time>2019-05-16T13:11:23Z</time>
      </trkpt>
      <trkpt lat="44.35818" lon="5.91595">
        <ele>600</ele>
        <time>2019-05-16T13:11:41Z</time>
      </trkpt>
      <trkpt lat="44.35881" lon="5.91638">
        <ele>600</ele>
        <time>2019-05-16T13:11:58Z</time>
      </trkpt>
      <trkpt lat="44.35939" lon="5.91677">
        <ele>600</ele>
        <time>2019-05-16T13:12:14Z</time>
      </trkpt>
      <trkpt lat="44.35997" lon="5.91717">
        <ele>600</ele>
        <time>2019-05-16T13:12:31Z</time>
      </trkpt>
      <trkpt lat="44.3606" lon="5.91766">
        <ele>600</ele>
        <time>2019-05-16T13:12:47Z</time>
      </trkpt>
      <trkpt lat="44.36116" lon="5.91803">
        <ele>600</ele>
        <time>2019-05-16T13:13:02Z</time>
      </trkpt>
      <trkpt lat="44.36183" lon="5.91848">
        <ele>600</ele>
        <time>2019-05-16T13:13:21Z</time>
      </trkpt>
      <trkpt lat="44.36243" lon="5.9189">
        <ele>600</ele>
        <time>2019-05-16T13:13:37Z</time>
      </trkpt>
      <trkpt lat="44.36312" lon="5.91936">
        <ele>600</ele>
        <time>2019-05-16T13:13:55Z</time>
      </trkpt>
      <trkpt lat="44.36378" lon="5.91983">
        <ele>599</ele>
        <time>2019-05-16T13:14:13Z</time>
      </trkpt>
      <trkpt lat="44.36433" lon="5.92018">
        <ele>599</ele>
        <time>2019-05-16T13:14:26Z</time>
      </trkpt>
      <trkpt lat="44.36437" lon="5.92021">
        <ele>599</ele>
        <time>2019-05-16T13:14:27Z</time>
      </trkpt>
      <trkpt lat="44.36503" lon="5.92067">
        <ele>598</ele>
        <time>2019-05-16T13:14:43Z</time>
      </trkpt>
      <trkpt lat="44.36572" lon="5.92112">
        <ele>598</ele>
        <time>2019-05-16T13:15:00Z</time>
      </trkpt>
      <trkpt lat="44.36638" lon="5.92145">
        <ele>598</ele>
        <time>2019-05-16T13:15:16Z</time>
      </trkpt>
      <trkpt lat="44.36711" lon="5.92165">
        <ele>598</ele>
        <time>2019-05-16T13:15:33Z</time>
      </trkpt>
      <trkpt lat="44.36766" lon="5.92185">
        <ele>598</ele>
        <time>2019-05-16T13:15:46Z</time>
      </trkpt>
      <trkpt lat="44.3677" lon="5.92187">
        <ele>598</ele>
        <time>2019-05-16T13:15:47Z</time>
      </trkpt>
      <trkpt lat="44.36773" lon="5.92189">
        <ele>598</ele>
        <time>2019-05-16T13:15:48Z</time>
      </trkpt>
      <trkpt lat="44.36775" lon="5.92191">
        <ele>598</ele>
        <time>2019-05-16T13:15:49Z</time>
      </trkpt>
      <trkpt lat="44.36778" lon="5.92192">
        <ele>598</ele>
        <time>2019-05-16T13:15:50Z</time>
      </trkpt>
      <trkpt lat="44.36781" lon="5.92193">
        <ele>598</ele>
        <time>2019-05-16T13:15:51Z</time>
      </trkpt>
      <trkpt lat="44.36815" lon="5.92208">
        <ele>600</ele>
        <time>2019-05-16T13:16:07Z</time>
      </trkpt>
      <trkpt lat="44.36836" lon="5.92221">
        <ele>603</ele>
        <time>2019-05-16T13:16:21Z</time>
      </trkpt>
      <trkpt lat="44.36834" lon="5.92223">
        <ele>603</ele>
        <time>2019-05-16T13:16:28Z</time>
      </trkpt>
      <trkpt lat="44.36844" lon="5.92223">
        <ele>603</ele>
        <time>2019-05-16T13:17:37Z</time>
      </trkpt>
      <trkpt lat="44.36846" lon="5.92224">
        <ele>603</ele>
        <time>2019-05-16T13:17:38Z</time>
      </trkpt>
      <trkpt lat="44.36849" lon="5.92226">
        <ele>603</ele>
        <time>2019-05-16T13:17:39Z</time>
      </trkpt>
      <trkpt lat="44.36903" lon="5.9226">
        <ele>602</ele>
        <time>2019-05-16T13:17:50Z</time>
      </trkpt>
      <trkpt lat="44.3697" lon="5.92309">
        <ele>599</ele>
        <time>2019-05-16T13:18:01Z</time>
      </trkpt>
      <trkpt lat="44.37076" lon="5.92392">
        <ele>597</ele>
        <time>2019-05-16T13:18:19Z</time>
      </trkpt>
      <trkpt lat="44.37155" lon="5.92457">
        <ele>595</ele>
        <time>2019-05-16T13:18:34Z</time>
      </trkpt>
      <trkpt lat="44.37169" lon="5.92468">
        <ele>595</ele>
        <time>2019-05-16T13:18:37Z</time>
      </trkpt>
      <trkpt lat="44.37227" lon="5.92526">
        <ele>594</ele>
        <time>2019-05-16T13:18:51Z</time>
      </trkpt>
      <trkpt lat="44.37282" lon="5.92577">
        <ele>595</ele>
        <time>2019-05-16T13:19:07Z</time>
      </trkpt>
      <trkpt lat="44.3733" lon="5.92619">
        <ele>597</ele>
        <time>2019-05-16T13:19:24Z</time>
      </trkpt>
      <trkpt lat="44.3737" lon="5.92651">
        <ele>598</ele>
        <time>2019-05-16T13:19:41Z</time>
      </trkpt>
      <trkpt lat="44.37418" lon="5.92686">
        <ele>599</ele>
        <time>2019-05-16T13:19:57Z</time>
      </trkpt>
      <trkpt lat="44.37473" lon="5.92725">
        <ele>599</ele>
        <time>2019-05-16T13:20:12Z</time>
      </trkpt>
      <trkpt lat="44.37509" lon="5.92751">
        <ele>599</ele>
        <time>2019-05-16T13:20:22Z</time>
      </trkpt>
      <trkpt lat="44.37513" lon="5.92754">
        <ele>599</ele>
        <time>2019-05-16T13:20:23Z</time>
      </trkpt>
      <trkpt lat="44.37585" lon="5.92803">
        <ele>599</ele>
        <time>2019-05-16T13:20:41Z</time>
      </trkpt>
      <trkpt lat="44.37644" lon="5.92844">
        <ele>599</ele>
        <time>2019-05-16T13:20:56Z</time>
      </trkpt>
      <trkpt lat="44.37718" lon="5.92896">
        <ele>598</ele>
        <time>2019-05-16T13:21:14Z</time>
      </trkpt>
      <trkpt lat="44.37786" lon="5.92942">
        <ele>598</ele>
        <time>2019-05-16T13:21:30Z</time>
      </trkpt>
      <trkpt lat="44.37871" lon="5.93002">
        <ele>597</ele>
        <time>2019-05-16T13:21:50Z</time>
      </trkpt>
      <trkpt lat="44.37875" lon="5.93005">
        <ele>597</ele>
        <time>2019-05-16T13:21:51Z</time>
      </trkpt>
      <trkpt lat="44.37879" lon="5.93008">
        <ele>597</ele>
        <time>2019-05-16T13:21:52Z</time>
      </trkpt>
      <trkpt lat="44.37932" lon="5.93045">
        <ele>597</ele>
        <time>2019-05-16T13:22:07Z</time>
      </trkpt>
      <trkpt lat="44.37978" lon="5.93074">
        <ele>598</ele>
        <time>2019-05-16T13:22:20Z</time>
      </trkpt>
      <trkpt lat="44.37981" lon="5.93077">
        <ele>598</ele>
        <time>2019-05-16T13:22:21Z</time>
      </trkpt>
      <trkpt lat="44.38024" lon="5.9311">
        <ele>598</ele>
        <time>2019-05-16T13:22:35Z</time>
      </trkpt>
      <trkpt lat="44.38093" lon="5.93162">
        <ele>599</ele>
        <time>2019-05-16T13:22:56Z</time>
      </trkpt>
      <trkpt lat="44.38142" lon="5.932">
        <ele>600</ele>
        <time>2019-05-16T13:23:12Z</time>
      </trkpt>
      <trkpt lat="44.38193" lon="5.93234">
        <ele>600</ele>
        <time>2019-05-16T13:23:30Z</time>
      </trkpt>
      <trkpt lat="44.38246" lon="5.93268">
        <ele>600</ele>
        <time>2019-05-16T13:23:46Z</time>
      </trkpt>
      <trkpt lat="44.38306" lon="5.9331">
        <ele>600</ele>
        <time>2019-05-16T13:24:03Z</time>
      </trkpt>
      <trkpt lat="44.3835" lon="5.93337">
        <ele>600</ele>
        <time>2019-05-16T13:24:14Z</time>
      </trkpt>
      <trkpt lat="44.3842" lon="5.93386">
        <ele>599</ele>
        <time>2019-05-16T13:24:32Z</time>
      </trkpt>
      <trkpt lat="44.38475" lon="5.93422">
        <ele>599</ele>
        <time>2019-05-16T13:24:48Z</time>
      </trkpt>
      <trkpt lat="44.38533" lon="5.93464">
        <ele>599</ele>
        <time>2019-05-16T13:25:06Z</time>
      </trkpt>
      <trkpt lat="44.38585" lon="5.93506">
        <ele>600</ele>
        <time>2019-05-16T13:25:24Z</time>
      </trkpt>
      <trkpt lat="44.38628" lon="5.93539">
        <ele>602</ele>
        <time>2019-05-16T13:25:43Z</time>
      </trkpt>
      <trkpt lat="44.38662" lon="5.93559">
        <ele>603</ele>
        <time>2019-05-16T13:25:59Z</time>
      </trkpt>
      <trkpt lat="44.38692" lon="5.93578">
        <ele>605</ele>
        <time>2019-05-16T13:26:16Z</time>
      </trkpt>
      <trkpt lat="44.38711" lon="5.93612">
        <ele>606</ele>
        <time>2019-05-16T13:26:29Z</time>
      </trkpt>
      <trkpt lat="44.38705" lon="5.93685">
        <ele>606</ele>
        <time>2019-05-16T13:26:44Z</time>
      </trkpt>
      <trkpt lat="44.38701" lon="5.93747">
        <ele>605</ele>
        <time>2019-05-16T13:26:56Z</time>
      </trkpt>
      <trkpt lat="44.38694" lon="5.93853">
        <ele>604</ele>
        <time>2019-05-16T13:27:10Z</time>
      </trkpt>
      <trkpt lat="44.3869" lon="5.93874">
        <ele>603</ele>
        <time>2019-05-16T13:27:13Z</time>
      </trkpt>
      <trkpt lat="44.38688" lon="5.93881">
        <ele>603</ele>
        <time>2019-05-16T13:27:14Z</time>
      </trkpt>
      <trkpt lat="44.38686" lon="5.93888">
        <ele>602</ele>
        <time>2019-05-16T13:27:15Z</time>
      </trkpt>
      <trkpt lat="44.38683" lon="5.93894">
        <ele>602</ele>
        <time>2019-05-16T13:27:16Z</time>
      </trkpt>
      <trkpt lat="44.38679" lon="5.939">
        <ele>602</ele>
        <time>2019-05-16T13:27:17Z</time>
      </trkpt>
      <trkpt lat="44.38674" lon="5.93904">
        <ele>601</ele>
        <time>2019-05-16T13:27:18Z</time>
      </trkpt>
      <trkpt lat="44.38665" lon="5.93907">
        <ele>600</ele>
        <time>2019-05-16T13:27:19Z</time>
      </trkpt>
      <trkpt lat="44.38657" lon="5.9391">
        <ele>600</ele>
        <time>2019-05-16T13:27:20Z</time>
      </trkpt>
      <trkpt lat="44.38649" lon="5.93911">
        <ele>600</ele>
        <time>2019-05-16T13:27:21Z</time>
      </trkpt>
      <trkpt lat="44.38556" lon="5.93928">
        <ele>596</ele>
        <time>2019-05-16T13:27:32Z</time>
      </trkpt>
      <trkpt lat="44.38516" lon="5.93938">
        <ele>593</ele>
        <time>2019-05-16T13:27:38Z</time>
      </trkpt>
      <trkpt lat="44.38511" lon="5.93941">
        <ele>592</ele>
        <time>2019-05-16T13:27:39Z</time>
      </trkpt>
      <trkpt lat="44.38507" lon="5.93946">
        <ele>591</ele>
        <time>2019-05-16T13:27:40Z</time>
      </trkpt>
      <trkpt lat="44.38504" lon="5.93951">
        <ele>591</ele>
        <time>2019-05-16T13:27:41Z</time>
      </trkpt>
      <trkpt lat="44.38501" lon="5.93957">
        <ele>590</ele>
        <time>2019-05-16T13:27:42Z</time>
      </trkpt>
      <trkpt lat="44.38501" lon="5.93965">
        <ele>589</ele>
        <time>2019-05-16T13:27:43Z</time>
      </trkpt>
      <trkpt lat="44.385" lon="5.93973">
        <ele>589</ele>
        <time>2019-05-16T13:27:44Z</time>
      </trkpt>
      <trkpt lat="44.38501" lon="5.93981">
        <ele>588</ele>
        <time>2019-05-16T13:27:45Z</time>
      </trkpt>
      <trkpt lat="44.38502" lon="5.93989">
        <ele>587</ele>
        <time>2019-05-16T13:27:46Z</time>
      </trkpt>
      <trkpt lat="44.38506" lon="5.94031">
        <ele>584</ele>
        <time>2019-05-16T13:27:52Z</time>
      </trkpt>
      <trkpt lat="44.38506" lon="5.94037">
        <ele>584</ele>
        <time>2019-05-16T13:27:53Z</time>
      </trkpt>
      <trkpt lat="44.38505" lon="5.94044">
        <ele>584</ele>
        <time>2019-05-16T13:27:54Z</time>
      </trkpt>
      <trkpt lat="44.38499" lon="5.94123">
        <ele>585</ele>
        <time>2019-05-16T13:28:08Z</time>
      </trkpt>
      <trkpt lat="44.38486" lon="5.94192">
        <ele>586</ele>
        <time>2019-05-16T13:28:23Z</time>
      </trkpt>
      <trkpt lat="44.38497" lon="5.94236">
        <ele>586</ele>
        <time>2019-05-16T13:28:36Z</time>
      </trkpt>
      <trkpt lat="44.38499" lon="5.94236">
        <ele>586</ele>
        <time>2019-05-16T13:28:37Z</time>
      </trkpt>
      <trkpt lat="44.38501" lon="5.94238">
        <ele>586</ele>
        <time>2019-05-16T13:28:38Z</time>
      </trkpt>
      <trkpt lat="44.38503" lon="5.94238">
        <ele>586</ele>
        <time>2019-05-16T13:28:39Z</time>
      </trkpt>
      <trkpt lat="44.38506" lon="5.94239">
        <ele>586</ele>
        <time>2019-05-16T13:28:40Z</time>
      </trkpt>
      <trkpt lat="44.38508" lon="5.94238">
        <ele>586</ele>
        <time>2019-05-16T13:28:41Z</time>
      </trkpt>
      <trkpt lat="44.3852" lon="5.94227">
        <ele>586</ele>
        <time>2019-05-16T13:28:48Z</time>
      </trkpt>
    </trkseg>
  </trk>
</gpx>